<?xml version="1.0" encoding="UTF-8" standalone="no" ?>
<gpx xmlns="http://www.topografix.com/GPX/1/1" xmlns:xsi="http://www.w3.org/2001/XMLSchema-instance" xsi:schemaLocation="http://www.topografix.com/GPX/1/1 http://www.topografix.com/GPX/1/1/gpx.xsd" version="1.1" creator="VisuGPX - https://www.visugpx.com">
  <metadata>
    <name>Saint-Hilaire-de-Riez, dune, forêt et marais</name>
    <desc><![CDATA[[b]Départ et arrivée[/b] : Parking de la Grande Plage de Sion 85270 SAINT-HILAIRE-DE-RIEZ (Vendée)
[b]Pour en savoir et voir plus [/b]
«[url]https://portail-de-randos.fr/autres/Pays_de_Loire/Vendee/sentiers/StHilairedeRiez_foretmarais.htm[/url]"

Si vous aimez la mer ce circuit est pour vous, si vous aimez les dunes allez-y, si vous aimez les pinèdes ne ratez pas cet itinéraire, si vous aimez les marais prenez le départ.

Et marchez sur des sentiers sablonneux.

Pour ne pas vous perdre suivez les balises bleues.

Si vous préférez l'aventure, suivez ma trace GPS.

Bonne balade

Jean LM
]]></desc>
  </metadata>
  <trk>
    <name><![CDATA[2024-03-22-02_Saint-Hilaire-de-Riez, dune forêt et marais]]></name>
    <trkseg>
      <trkpt lat="46.71991" lon="-1.97105">
        <ele>13.7</ele>
        <time>2024-03-22T07:52:34Z</time>
      </trkpt>
      <trkpt lat="46.71991" lon="-1.97104">
        <ele>13.7</ele>
        <time>2024-03-22T07:52:35Z</time>
      </trkpt>
      <trkpt lat="46.71999" lon="-1.97099">
        <ele>13.9</ele>
        <time>2024-03-22T07:52:51Z</time>
      </trkpt>
      <trkpt lat="46.72006" lon="-1.9709">
        <ele>13.8</ele>
        <time>2024-03-22T07:53:03Z</time>
      </trkpt>
      <trkpt lat="46.72013" lon="-1.9708">
        <ele>13.8</ele>
        <time>2024-03-22T07:53:12Z</time>
      </trkpt>
      <trkpt lat="46.72021" lon="-1.97073">
        <ele>13.8</ele>
        <time>2024-03-22T07:53:21Z</time>
      </trkpt>
      <trkpt lat="46.72028" lon="-1.97063">
        <ele>13.6</ele>
        <time>2024-03-22T07:53:31Z</time>
      </trkpt>
      <trkpt lat="46.72035" lon="-1.97053">
        <ele>13.6</ele>
        <time>2024-03-22T07:53:40Z</time>
      </trkpt>
      <trkpt lat="46.72044" lon="-1.97046">
        <ele>13.6</ele>
        <time>2024-03-22T07:53:46Z</time>
      </trkpt>
      <trkpt lat="46.72052" lon="-1.97037">
        <ele>13.6</ele>
        <time>2024-03-22T07:53:56Z</time>
      </trkpt>
      <trkpt lat="46.72043" lon="-1.97036">
        <ele>13.7</ele>
        <time>2024-03-22T07:54:22Z</time>
      </trkpt>
      <trkpt lat="46.72043" lon="-1.97023">
        <ele>13.8</ele>
        <time>2024-03-22T07:54:31Z</time>
      </trkpt>
      <trkpt lat="46.72045" lon="-1.97009">
        <ele>13.8</ele>
        <time>2024-03-22T07:54:39Z</time>
      </trkpt>
      <trkpt lat="46.72046" lon="-1.96996">
        <ele>13.8</ele>
        <time>2024-03-22T07:54:47Z</time>
      </trkpt>
      <trkpt lat="46.72046" lon="-1.96982">
        <ele>14.3</ele>
        <time>2024-03-22T07:54:56Z</time>
      </trkpt>
      <trkpt lat="46.7205" lon="-1.96971">
        <ele>14.5</ele>
        <time>2024-03-22T07:55:04Z</time>
      </trkpt>
      <trkpt lat="46.72056" lon="-1.96961">
        <ele>14.6</ele>
        <time>2024-03-22T07:55:11Z</time>
      </trkpt>
      <trkpt lat="46.72063" lon="-1.9695">
        <ele>14.5</ele>
        <time>2024-03-22T07:55:18Z</time>
      </trkpt>
      <trkpt lat="46.7207" lon="-1.96939">
        <ele>14.4</ele>
        <time>2024-03-22T07:55:25Z</time>
      </trkpt>
      <trkpt lat="46.72071" lon="-1.96925">
        <ele>14.4</ele>
        <time>2024-03-22T07:55:32Z</time>
      </trkpt>
      <trkpt lat="46.72075" lon="-1.96912">
        <ele>14.4</ele>
        <time>2024-03-22T07:55:39Z</time>
      </trkpt>
      <trkpt lat="46.72078" lon="-1.969">
        <ele>14.4</ele>
        <time>2024-03-22T07:55:46Z</time>
      </trkpt>
      <trkpt lat="46.72082" lon="-1.96886">
        <ele>14.1</ele>
        <time>2024-03-22T07:55:53Z</time>
      </trkpt>
      <trkpt lat="46.72087" lon="-1.96874">
        <ele>14.1</ele>
        <time>2024-03-22T07:56:00Z</time>
      </trkpt>
      <trkpt lat="46.72088" lon="-1.96861">
        <ele>14.1</ele>
        <time>2024-03-22T07:56:06Z</time>
      </trkpt>
      <trkpt lat="46.72091" lon="-1.96847">
        <ele>14.1</ele>
        <time>2024-03-22T07:56:12Z</time>
      </trkpt>
      <trkpt lat="46.72091" lon="-1.96833">
        <ele>14.2</ele>
        <time>2024-03-22T07:56:19Z</time>
      </trkpt>
      <trkpt lat="46.72095" lon="-1.96817">
        <ele>14.2</ele>
        <time>2024-03-22T07:56:27Z</time>
      </trkpt>
      <trkpt lat="46.72099" lon="-1.96806">
        <ele>14.2</ele>
        <time>2024-03-22T07:56:34Z</time>
      </trkpt>
      <trkpt lat="46.72106" lon="-1.96796">
        <ele>14.2</ele>
        <time>2024-03-22T07:56:38Z</time>
      </trkpt>
      <trkpt lat="46.72112" lon="-1.96785">
        <ele>14.3</ele>
        <time>2024-03-22T07:56:44Z</time>
      </trkpt>
      <trkpt lat="46.72115" lon="-1.9677">
        <ele>14.4</ele>
        <time>2024-03-22T07:56:53Z</time>
      </trkpt>
      <trkpt lat="46.72118" lon="-1.96757">
        <ele>14.3</ele>
        <time>2024-03-22T07:57:01Z</time>
      </trkpt>
      <trkpt lat="46.72123" lon="-1.96745">
        <ele>14.5</ele>
        <time>2024-03-22T07:57:08Z</time>
      </trkpt>
      <trkpt lat="46.72128" lon="-1.96733">
        <ele>14.8</ele>
        <time>2024-03-22T07:57:17Z</time>
      </trkpt>
      <trkpt lat="46.72136" lon="-1.96726">
        <ele>14.8</ele>
        <time>2024-03-22T07:57:31Z</time>
      </trkpt>
      <trkpt lat="46.72145" lon="-1.96723">
        <ele>15</ele>
        <time>2024-03-22T07:58:56Z</time>
      </trkpt>
      <trkpt lat="46.72154" lon="-1.96725">
        <ele>14.8</ele>
        <time>2024-03-22T07:59:27Z</time>
      </trkpt>
      <trkpt lat="46.72147" lon="-1.96716">
        <ele>14.8</ele>
        <time>2024-03-22T07:59:48Z</time>
      </trkpt>
      <trkpt lat="46.72138" lon="-1.96719">
        <ele>14.9</ele>
        <time>2024-03-22T08:00:34Z</time>
      </trkpt>
      <trkpt lat="46.72129" lon="-1.96722">
        <ele>15</ele>
        <time>2024-03-22T08:01:07Z</time>
      </trkpt>
      <trkpt lat="46.7214" lon="-1.96721">
        <ele>15.1</ele>
        <time>2024-03-22T08:02:01Z</time>
      </trkpt>
      <trkpt lat="46.72148" lon="-1.96735">
        <ele>15.6</ele>
        <time>2024-03-22T08:02:34Z</time>
      </trkpt>
      <trkpt lat="46.72155" lon="-1.96745">
        <ele>15.5</ele>
        <time>2024-03-22T08:02:41Z</time>
      </trkpt>
      <trkpt lat="46.72158" lon="-1.96757">
        <ele>15.4</ele>
        <time>2024-03-22T08:02:47Z</time>
      </trkpt>
      <trkpt lat="46.72164" lon="-1.96769">
        <ele>15.2</ele>
        <time>2024-03-22T08:02:55Z</time>
      </trkpt>
      <trkpt lat="46.7217" lon="-1.96779">
        <ele>15</ele>
        <time>2024-03-22T08:03:01Z</time>
      </trkpt>
      <trkpt lat="46.72176" lon="-1.9679">
        <ele>14.5</ele>
        <time>2024-03-22T08:03:08Z</time>
      </trkpt>
      <trkpt lat="46.72184" lon="-1.968">
        <ele>14.1</ele>
        <time>2024-03-22T08:03:14Z</time>
      </trkpt>
      <trkpt lat="46.7219" lon="-1.9681">
        <ele>14.1</ele>
        <time>2024-03-22T08:03:21Z</time>
      </trkpt>
      <trkpt lat="46.72199" lon="-1.9681">
        <ele>14.4</ele>
        <time>2024-03-22T08:03:32Z</time>
      </trkpt>
      <trkpt lat="46.72208" lon="-1.96802">
        <ele>15.2</ele>
        <time>2024-03-22T08:03:41Z</time>
      </trkpt>
      <trkpt lat="46.72214" lon="-1.96791">
        <ele>15.9</ele>
        <time>2024-03-22T08:03:51Z</time>
      </trkpt>
      <trkpt lat="46.72219" lon="-1.96781">
        <ele>15.6</ele>
        <time>2024-03-22T08:03:58Z</time>
      </trkpt>
      <trkpt lat="46.72226" lon="-1.96769">
        <ele>15.3</ele>
        <time>2024-03-22T08:04:07Z</time>
      </trkpt>
      <trkpt lat="46.72235" lon="-1.96763">
        <ele>15.2</ele>
        <time>2024-03-22T08:04:13Z</time>
      </trkpt>
      <trkpt lat="46.72245" lon="-1.96762">
        <ele>15.2</ele>
        <time>2024-03-22T08:04:22Z</time>
      </trkpt>
      <trkpt lat="46.72256" lon="-1.96756">
        <ele>15.3</ele>
        <time>2024-03-22T08:04:29Z</time>
      </trkpt>
      <trkpt lat="46.72265" lon="-1.96751">
        <ele>15.5</ele>
        <time>2024-03-22T08:04:35Z</time>
      </trkpt>
      <trkpt lat="46.72274" lon="-1.9675">
        <ele>16</ele>
        <time>2024-03-22T08:04:43Z</time>
      </trkpt>
      <trkpt lat="46.72283" lon="-1.96746">
        <ele>16.2</ele>
        <time>2024-03-22T08:04:53Z</time>
      </trkpt>
      <trkpt lat="46.72286" lon="-1.96733">
        <ele>16.3</ele>
        <time>2024-03-22T08:05:00Z</time>
      </trkpt>
      <trkpt lat="46.7229" lon="-1.96719">
        <ele>16.2</ele>
        <time>2024-03-22T08:05:05Z</time>
      </trkpt>
      <trkpt lat="46.72298" lon="-1.9671">
        <ele>16.4</ele>
        <time>2024-03-22T08:05:12Z</time>
      </trkpt>
      <trkpt lat="46.72307" lon="-1.96702">
        <ele>16.5</ele>
        <time>2024-03-22T08:05:22Z</time>
      </trkpt>
      <trkpt lat="46.72314" lon="-1.96694">
        <ele>16.4</ele>
        <time>2024-03-22T08:05:28Z</time>
      </trkpt>
      <trkpt lat="46.72314" lon="-1.9668">
        <ele>16.6</ele>
        <time>2024-03-22T08:05:33Z</time>
      </trkpt>
      <trkpt lat="46.72317" lon="-1.96666">
        <ele>16.7</ele>
        <time>2024-03-22T08:05:40Z</time>
      </trkpt>
      <trkpt lat="46.72323" lon="-1.96653">
        <ele>16.5</ele>
        <time>2024-03-22T08:05:46Z</time>
      </trkpt>
      <trkpt lat="46.72328" lon="-1.96641">
        <ele>16.1</ele>
        <time>2024-03-22T08:05:53Z</time>
      </trkpt>
      <trkpt lat="46.72337" lon="-1.96635">
        <ele>16.3</ele>
        <time>2024-03-22T08:06:02Z</time>
      </trkpt>
      <trkpt lat="46.72347" lon="-1.96637">
        <ele>17</ele>
        <time>2024-03-22T08:06:09Z</time>
      </trkpt>
      <trkpt lat="46.72356" lon="-1.96641">
        <ele>17.4</ele>
        <time>2024-03-22T08:06:20Z</time>
      </trkpt>
      <trkpt lat="46.72365" lon="-1.96647">
        <ele>16.8</ele>
        <time>2024-03-22T08:06:28Z</time>
      </trkpt>
      <trkpt lat="46.72374" lon="-1.96648">
        <ele>16.8</ele>
        <time>2024-03-22T08:06:35Z</time>
      </trkpt>
      <trkpt lat="46.72383" lon="-1.96649">
        <ele>17.9</ele>
        <time>2024-03-22T08:06:44Z</time>
      </trkpt>
      <trkpt lat="46.72393" lon="-1.96649">
        <ele>19.1</ele>
        <time>2024-03-22T08:06:50Z</time>
      </trkpt>
      <trkpt lat="46.724" lon="-1.96641">
        <ele>21</ele>
        <time>2024-03-22T08:07:00Z</time>
      </trkpt>
      <trkpt lat="46.72392" lon="-1.96648">
        <ele>19.7</ele>
        <time>2024-03-22T08:07:53Z</time>
      </trkpt>
      <trkpt lat="46.724" lon="-1.96641">
        <ele>19.9</ele>
        <time>2024-03-22T08:08:10Z</time>
      </trkpt>
      <trkpt lat="46.72408" lon="-1.96633">
        <ele>21.3</ele>
        <time>2024-03-22T08:08:19Z</time>
      </trkpt>
      <trkpt lat="46.72416" lon="-1.96628">
        <ele>21.6</ele>
        <time>2024-03-22T08:08:25Z</time>
      </trkpt>
      <trkpt lat="46.72425" lon="-1.96623">
        <ele>21.8</ele>
        <time>2024-03-22T08:08:33Z</time>
      </trkpt>
      <trkpt lat="46.72434" lon="-1.96622">
        <ele>23.2</ele>
        <time>2024-03-22T08:08:45Z</time>
      </trkpt>
      <trkpt lat="46.72444" lon="-1.96621">
        <ele>24.4</ele>
        <time>2024-03-22T08:08:53Z</time>
      </trkpt>
      <trkpt lat="46.72453" lon="-1.96625">
        <ele>24.8</ele>
        <time>2024-03-22T08:09:01Z</time>
      </trkpt>
      <trkpt lat="46.72463" lon="-1.96627">
        <ele>25.5</ele>
        <time>2024-03-22T08:09:16Z</time>
      </trkpt>
      <trkpt lat="46.72472" lon="-1.96631">
        <ele>25.5</ele>
        <time>2024-03-22T08:09:26Z</time>
      </trkpt>
      <trkpt lat="46.72482" lon="-1.96637">
        <ele>25.5</ele>
        <time>2024-03-22T08:09:31Z</time>
      </trkpt>
      <trkpt lat="46.72491" lon="-1.96642">
        <ele>25.4</ele>
        <time>2024-03-22T08:09:37Z</time>
      </trkpt>
      <trkpt lat="46.72499" lon="-1.96652">
        <ele>25.4</ele>
        <time>2024-03-22T08:09:45Z</time>
      </trkpt>
      <trkpt lat="46.72507" lon="-1.96658">
        <ele>25.4</ele>
        <time>2024-03-22T08:09:53Z</time>
      </trkpt>
      <trkpt lat="46.72517" lon="-1.96658">
        <ele>25.2</ele>
        <time>2024-03-22T08:10:03Z</time>
      </trkpt>
      <trkpt lat="46.72527" lon="-1.9666">
        <ele>25.1</ele>
        <time>2024-03-22T08:10:32Z</time>
      </trkpt>
      <trkpt lat="46.72536" lon="-1.96662">
        <ele>25.3</ele>
        <time>2024-03-22T08:10:39Z</time>
      </trkpt>
      <trkpt lat="46.72546" lon="-1.96663">
        <ele>25.9</ele>
        <time>2024-03-22T08:10:46Z</time>
      </trkpt>
      <trkpt lat="46.72555" lon="-1.96664">
        <ele>27.8</ele>
        <time>2024-03-22T08:10:58Z</time>
      </trkpt>
      <trkpt lat="46.72565" lon="-1.96669">
        <ele>28.6</ele>
        <time>2024-03-22T08:11:06Z</time>
      </trkpt>
      <trkpt lat="46.72574" lon="-1.96668">
        <ele>29.3</ele>
        <time>2024-03-22T08:11:12Z</time>
      </trkpt>
      <trkpt lat="46.72579" lon="-1.96679">
        <ele>31.3</ele>
        <time>2024-03-22T08:11:24Z</time>
      </trkpt>
      <trkpt lat="46.72587" lon="-1.96687">
        <ele>31.6</ele>
        <time>2024-03-22T08:12:01Z</time>
      </trkpt>
      <trkpt lat="46.72585" lon="-1.96701">
        <ele>31</ele>
        <time>2024-03-22T08:12:11Z</time>
      </trkpt>
      <trkpt lat="46.72594" lon="-1.96705">
        <ele>29</ele>
        <time>2024-03-22T08:12:25Z</time>
      </trkpt>
      <trkpt lat="46.726" lon="-1.96717">
        <ele>22</ele>
        <time>2024-03-22T08:12:46Z</time>
      </trkpt>
      <trkpt lat="46.72619" lon="-1.96725">
        <ele>20</ele>
        <time>2024-03-22T08:13:00Z</time>
      </trkpt>
      <trkpt lat="46.72632" lon="-1.96732">
        <ele>18</ele>
        <time>2024-03-22T08:13:09Z</time>
      </trkpt>
      <trkpt lat="46.72638" lon="-1.96742">
        <ele>18</ele>
        <time>2024-03-22T08:13:19Z</time>
      </trkpt>
      <trkpt lat="46.72649" lon="-1.96745">
        <ele>18.2</ele>
        <time>2024-03-22T08:13:28Z</time>
      </trkpt>
      <trkpt lat="46.72658" lon="-1.9675">
        <ele>19</ele>
        <time>2024-03-22T08:13:49Z</time>
      </trkpt>
      <trkpt lat="46.72668" lon="-1.9675">
        <ele>19.5</ele>
        <time>2024-03-22T08:14:02Z</time>
      </trkpt>
      <trkpt lat="46.72677" lon="-1.96754">
        <ele>20.6</ele>
        <time>2024-03-22T08:14:10Z</time>
      </trkpt>
      <trkpt lat="46.72687" lon="-1.9676">
        <ele>22.1</ele>
        <time>2024-03-22T08:14:20Z</time>
      </trkpt>
      <trkpt lat="46.72693" lon="-1.96771">
        <ele>23</ele>
        <time>2024-03-22T08:14:27Z</time>
      </trkpt>
      <trkpt lat="46.72695" lon="-1.96785">
        <ele>24.1</ele>
        <time>2024-03-22T08:14:37Z</time>
      </trkpt>
      <trkpt lat="46.72694" lon="-1.96798">
        <ele>25.7</ele>
        <time>2024-03-22T08:14:46Z</time>
      </trkpt>
      <trkpt lat="46.72694" lon="-1.96813">
        <ele>26.9</ele>
        <time>2024-03-22T08:14:53Z</time>
      </trkpt>
      <trkpt lat="46.72696" lon="-1.96826">
        <ele>27.3</ele>
        <time>2024-03-22T08:15:00Z</time>
      </trkpt>
      <trkpt lat="46.72706" lon="-1.96829">
        <ele>26.2</ele>
        <time>2024-03-22T08:15:24Z</time>
      </trkpt>
      <trkpt lat="46.72715" lon="-1.96825">
        <ele>24.5</ele>
        <time>2024-03-22T08:15:32Z</time>
      </trkpt>
      <trkpt lat="46.72719" lon="-1.96812">
        <ele>22.4</ele>
        <time>2024-03-22T08:15:41Z</time>
      </trkpt>
      <trkpt lat="46.72727" lon="-1.96802">
        <ele>20.3</ele>
        <time>2024-03-22T08:15:48Z</time>
      </trkpt>
      <trkpt lat="46.72735" lon="-1.96795">
        <ele>18.2</ele>
        <time>2024-03-22T08:15:56Z</time>
      </trkpt>
      <trkpt lat="46.72743" lon="-1.96789">
        <ele>17.1</ele>
        <time>2024-03-22T08:16:04Z</time>
      </trkpt>
      <trkpt lat="46.72753" lon="-1.96784">
        <ele>16.8</ele>
        <time>2024-03-22T08:16:12Z</time>
      </trkpt>
      <trkpt lat="46.72755" lon="-1.96771">
        <ele>18.1</ele>
        <time>2024-03-22T08:16:22Z</time>
      </trkpt>
      <trkpt lat="46.7275" lon="-1.96759">
        <ele>18.9</ele>
        <time>2024-03-22T08:16:32Z</time>
      </trkpt>
      <trkpt lat="46.7275" lon="-1.96745">
        <ele>18.7</ele>
        <time>2024-03-22T08:16:41Z</time>
      </trkpt>
      <trkpt lat="46.72747" lon="-1.96732">
        <ele>18.7</ele>
        <time>2024-03-22T08:16:47Z</time>
      </trkpt>
      <trkpt lat="46.72741" lon="-1.96721">
        <ele>18.2</ele>
        <time>2024-03-22T08:16:54Z</time>
      </trkpt>
      <trkpt lat="46.72737" lon="-1.96708">
        <ele>18.1</ele>
        <time>2024-03-22T08:17:00Z</time>
      </trkpt>
      <trkpt lat="46.72729" lon="-1.967">
        <ele>18</ele>
        <time>2024-03-22T08:17:08Z</time>
      </trkpt>
      <trkpt lat="46.7273" lon="-1.96687">
        <ele>17.2</ele>
        <time>2024-03-22T08:17:14Z</time>
      </trkpt>
      <trkpt lat="46.72733" lon="-1.96674">
        <ele>16.8</ele>
        <time>2024-03-22T08:17:27Z</time>
      </trkpt>
      <trkpt lat="46.72739" lon="-1.9666">
        <ele>15.5</ele>
        <time>2024-03-22T08:17:40Z</time>
      </trkpt>
      <trkpt lat="46.7275" lon="-1.96653">
        <ele>14.1</ele>
        <time>2024-03-22T08:17:50Z</time>
      </trkpt>
      <trkpt lat="46.72759" lon="-1.96647">
        <ele>13.4</ele>
        <time>2024-03-22T08:17:55Z</time>
      </trkpt>
      <trkpt lat="46.72768" lon="-1.96642">
        <ele>13</ele>
        <time>2024-03-22T08:17:59Z</time>
      </trkpt>
      <trkpt lat="46.72775" lon="-1.96632">
        <ele>12.2</ele>
        <time>2024-03-22T08:18:07Z</time>
      </trkpt>
      <trkpt lat="46.72778" lon="-1.96618">
        <ele>11.8</ele>
        <time>2024-03-22T08:18:14Z</time>
      </trkpt>
      <trkpt lat="46.72786" lon="-1.96608">
        <ele>11.9</ele>
        <time>2024-03-22T08:18:19Z</time>
      </trkpt>
      <trkpt lat="46.72793" lon="-1.96599">
        <ele>12.4</ele>
        <time>2024-03-22T08:18:26Z</time>
      </trkpt>
      <trkpt lat="46.72799" lon="-1.96589">
        <ele>12.1</ele>
        <time>2024-03-22T08:18:33Z</time>
      </trkpt>
      <trkpt lat="46.72803" lon="-1.96576">
        <ele>11.2</ele>
        <time>2024-03-22T08:18:41Z</time>
      </trkpt>
      <trkpt lat="46.72795" lon="-1.96567">
        <ele>10.2</ele>
        <time>2024-03-22T08:19:04Z</time>
      </trkpt>
      <trkpt lat="46.72787" lon="-1.9656">
        <ele>10.3</ele>
        <time>2024-03-22T08:19:10Z</time>
      </trkpt>
      <trkpt lat="46.72777" lon="-1.96557">
        <ele>10.5</ele>
        <time>2024-03-22T08:19:15Z</time>
      </trkpt>
      <trkpt lat="46.72768" lon="-1.96553">
        <ele>10.6</ele>
        <time>2024-03-22T08:19:22Z</time>
      </trkpt>
      <trkpt lat="46.72758" lon="-1.96548">
        <ele>10.7</ele>
        <time>2024-03-22T08:19:30Z</time>
      </trkpt>
      <trkpt lat="46.72749" lon="-1.96543">
        <ele>10.8</ele>
        <time>2024-03-22T08:19:37Z</time>
      </trkpt>
      <trkpt lat="46.7274" lon="-1.96536">
        <ele>10.7</ele>
        <time>2024-03-22T08:19:43Z</time>
      </trkpt>
      <trkpt lat="46.72732" lon="-1.96529">
        <ele>10.8</ele>
        <time>2024-03-22T08:19:50Z</time>
      </trkpt>
      <trkpt lat="46.72723" lon="-1.96524">
        <ele>10.8</ele>
        <time>2024-03-22T08:19:58Z</time>
      </trkpt>
      <trkpt lat="46.72713" lon="-1.9652">
        <ele>10.9</ele>
        <time>2024-03-22T08:20:06Z</time>
      </trkpt>
      <trkpt lat="46.72704" lon="-1.96518">
        <ele>10.9</ele>
        <time>2024-03-22T08:20:12Z</time>
      </trkpt>
      <trkpt lat="46.72693" lon="-1.96517">
        <ele>11</ele>
        <time>2024-03-22T08:20:20Z</time>
      </trkpt>
      <trkpt lat="46.72682" lon="-1.9652">
        <ele>11</ele>
        <time>2024-03-22T08:20:25Z</time>
      </trkpt>
      <trkpt lat="46.72672" lon="-1.9652">
        <ele>11.1</ele>
        <time>2024-03-22T08:20:34Z</time>
      </trkpt>
      <trkpt lat="46.72662" lon="-1.96519">
        <ele>11.3</ele>
        <time>2024-03-22T08:20:41Z</time>
      </trkpt>
      <trkpt lat="46.72653" lon="-1.96515">
        <ele>11.4</ele>
        <time>2024-03-22T08:20:48Z</time>
      </trkpt>
      <trkpt lat="46.72644" lon="-1.96511">
        <ele>11.4</ele>
        <time>2024-03-22T08:20:59Z</time>
      </trkpt>
      <trkpt lat="46.72634" lon="-1.96505">
        <ele>11.5</ele>
        <time>2024-03-22T08:21:06Z</time>
      </trkpt>
      <trkpt lat="46.72624" lon="-1.96499">
        <ele>11.5</ele>
        <time>2024-03-22T08:21:16Z</time>
      </trkpt>
      <trkpt lat="46.72617" lon="-1.96491">
        <ele>11.4</ele>
        <time>2024-03-22T08:21:21Z</time>
      </trkpt>
      <trkpt lat="46.72608" lon="-1.96484">
        <ele>11.4</ele>
        <time>2024-03-22T08:21:30Z</time>
      </trkpt>
      <trkpt lat="46.72599" lon="-1.9648">
        <ele>11.5</ele>
        <time>2024-03-22T08:21:36Z</time>
      </trkpt>
      <trkpt lat="46.7259" lon="-1.96473">
        <ele>11.6</ele>
        <time>2024-03-22T08:21:42Z</time>
      </trkpt>
      <trkpt lat="46.72582" lon="-1.96467">
        <ele>11.6</ele>
        <time>2024-03-22T08:21:48Z</time>
      </trkpt>
      <trkpt lat="46.72573" lon="-1.96461">
        <ele>11.8</ele>
        <time>2024-03-22T08:21:55Z</time>
      </trkpt>
      <trkpt lat="46.72566" lon="-1.9645">
        <ele>12.1</ele>
        <time>2024-03-22T08:23:06Z</time>
      </trkpt>
      <trkpt lat="46.72557" lon="-1.96447">
        <ele>12.1</ele>
        <time>2024-03-22T08:23:12Z</time>
      </trkpt>
      <trkpt lat="46.72549" lon="-1.96441">
        <ele>12.3</ele>
        <time>2024-03-22T08:23:19Z</time>
      </trkpt>
      <trkpt lat="46.7254" lon="-1.96437">
        <ele>12.3</ele>
        <time>2024-03-22T08:23:28Z</time>
      </trkpt>
      <trkpt lat="46.72537" lon="-1.96425">
        <ele>12.2</ele>
        <time>2024-03-22T08:23:53Z</time>
      </trkpt>
      <trkpt lat="46.72527" lon="-1.96426">
        <ele>12.2</ele>
        <time>2024-03-22T08:24:10Z</time>
      </trkpt>
      <trkpt lat="46.72519" lon="-1.96421">
        <ele>12.2</ele>
        <time>2024-03-22T08:24:29Z</time>
      </trkpt>
      <trkpt lat="46.7251" lon="-1.96418">
        <ele>12.1</ele>
        <time>2024-03-22T08:24:41Z</time>
      </trkpt>
      <trkpt lat="46.72501" lon="-1.96412">
        <ele>12.2</ele>
        <time>2024-03-22T08:24:51Z</time>
      </trkpt>
      <trkpt lat="46.72491" lon="-1.96411">
        <ele>12.2</ele>
        <time>2024-03-22T08:25:01Z</time>
      </trkpt>
      <trkpt lat="46.72485" lon="-1.964">
        <ele>12.4</ele>
        <time>2024-03-22T08:25:18Z</time>
      </trkpt>
      <trkpt lat="46.72479" lon="-1.96391">
        <ele>12.4</ele>
        <time>2024-03-22T08:26:04Z</time>
      </trkpt>
      <trkpt lat="46.72469" lon="-1.96391">
        <ele>12.6</ele>
        <time>2024-03-22T08:26:16Z</time>
      </trkpt>
      <trkpt lat="46.72459" lon="-1.96389">
        <ele>12.7</ele>
        <time>2024-03-22T08:26:24Z</time>
      </trkpt>
      <trkpt lat="46.7245" lon="-1.96384">
        <ele>12.9</ele>
        <time>2024-03-22T08:26:35Z</time>
      </trkpt>
      <trkpt lat="46.72443" lon="-1.96374">
        <ele>12.9</ele>
        <time>2024-03-22T08:26:48Z</time>
      </trkpt>
      <trkpt lat="46.72433" lon="-1.96369">
        <ele>13</ele>
        <time>2024-03-22T08:26:55Z</time>
      </trkpt>
      <trkpt lat="46.72424" lon="-1.96365">
        <ele>13.1</ele>
        <time>2024-03-22T08:27:03Z</time>
      </trkpt>
      <trkpt lat="46.72414" lon="-1.9636">
        <ele>13</ele>
        <time>2024-03-22T08:27:09Z</time>
      </trkpt>
      <trkpt lat="46.72404" lon="-1.96353">
        <ele>13</ele>
        <time>2024-03-22T08:27:16Z</time>
      </trkpt>
      <trkpt lat="46.72397" lon="-1.96346">
        <ele>13.1</ele>
        <time>2024-03-22T08:27:22Z</time>
      </trkpt>
      <trkpt lat="46.72388" lon="-1.9634">
        <ele>13.3</ele>
        <time>2024-03-22T08:27:31Z</time>
      </trkpt>
      <trkpt lat="46.72379" lon="-1.96334">
        <ele>13.4</ele>
        <time>2024-03-22T08:27:40Z</time>
      </trkpt>
      <trkpt lat="46.72371" lon="-1.96326">
        <ele>13.5</ele>
        <time>2024-03-22T08:27:49Z</time>
      </trkpt>
      <trkpt lat="46.72361" lon="-1.96319">
        <ele>13.8</ele>
        <time>2024-03-22T08:27:59Z</time>
      </trkpt>
      <trkpt lat="46.72352" lon="-1.96317">
        <ele>14</ele>
        <time>2024-03-22T08:28:07Z</time>
      </trkpt>
      <trkpt lat="46.72342" lon="-1.9632">
        <ele>14</ele>
        <time>2024-03-22T08:28:21Z</time>
      </trkpt>
      <trkpt lat="46.72338" lon="-1.96333">
        <ele>13.6</ele>
        <time>2024-03-22T08:28:28Z</time>
      </trkpt>
      <trkpt lat="46.72338" lon="-1.96346">
        <ele>13.5</ele>
        <time>2024-03-22T08:28:35Z</time>
      </trkpt>
      <trkpt lat="46.72334" lon="-1.96358">
        <ele>13.7</ele>
        <time>2024-03-22T08:28:43Z</time>
      </trkpt>
      <trkpt lat="46.72332" lon="-1.96371">
        <ele>14</ele>
        <time>2024-03-22T08:28:50Z</time>
      </trkpt>
      <trkpt lat="46.72328" lon="-1.96385">
        <ele>14.1</ele>
        <time>2024-03-22T08:28:58Z</time>
      </trkpt>
      <trkpt lat="46.72327" lon="-1.96369">
        <ele>14.1</ele>
        <time>2024-03-22T08:29:52Z</time>
      </trkpt>
      <trkpt lat="46.72325" lon="-1.96356">
        <ele>14</ele>
        <time>2024-03-22T08:30:01Z</time>
      </trkpt>
      <trkpt lat="46.72331" lon="-1.96344">
        <ele>14</ele>
        <time>2024-03-22T08:30:09Z</time>
      </trkpt>
      <trkpt lat="46.72326" lon="-1.96332">
        <ele>13.8</ele>
        <time>2024-03-22T08:30:19Z</time>
      </trkpt>
      <trkpt lat="46.7233" lon="-1.9632">
        <ele>13.7</ele>
        <time>2024-03-22T08:30:25Z</time>
      </trkpt>
      <trkpt lat="46.72327" lon="-1.96307">
        <ele>14</ele>
        <time>2024-03-22T08:30:36Z</time>
      </trkpt>
      <trkpt lat="46.72324" lon="-1.96293">
        <ele>14.2</ele>
        <time>2024-03-22T08:30:45Z</time>
      </trkpt>
      <trkpt lat="46.72315" lon="-1.96291">
        <ele>14.5</ele>
        <time>2024-03-22T08:31:26Z</time>
      </trkpt>
      <trkpt lat="46.72306" lon="-1.96284">
        <ele>14.3</ele>
        <time>2024-03-22T08:31:34Z</time>
      </trkpt>
      <trkpt lat="46.72296" lon="-1.96283">
        <ele>14.3</ele>
        <time>2024-03-22T08:31:41Z</time>
      </trkpt>
      <trkpt lat="46.72287" lon="-1.96282">
        <ele>14.3</ele>
        <time>2024-03-22T08:31:48Z</time>
      </trkpt>
      <trkpt lat="46.72278" lon="-1.9628">
        <ele>14.3</ele>
        <time>2024-03-22T08:32:02Z</time>
      </trkpt>
      <trkpt lat="46.72268" lon="-1.96281">
        <ele>14.2</ele>
        <time>2024-03-22T08:32:07Z</time>
      </trkpt>
      <trkpt lat="46.72259" lon="-1.96281">
        <ele>14.1</ele>
        <time>2024-03-22T08:32:12Z</time>
      </trkpt>
      <trkpt lat="46.7225" lon="-1.96279">
        <ele>14.3</ele>
        <time>2024-03-22T08:32:20Z</time>
      </trkpt>
      <trkpt lat="46.72248" lon="-1.96265">
        <ele>14.2</ele>
        <time>2024-03-22T08:32:34Z</time>
      </trkpt>
      <trkpt lat="46.72253" lon="-1.96252">
        <ele>14.3</ele>
        <time>2024-03-22T08:32:42Z</time>
      </trkpt>
      <trkpt lat="46.72256" lon="-1.96238">
        <ele>14.5</ele>
        <time>2024-03-22T08:32:52Z</time>
      </trkpt>
      <trkpt lat="46.7226" lon="-1.96224">
        <ele>14.5</ele>
        <time>2024-03-22T08:32:59Z</time>
      </trkpt>
      <trkpt lat="46.72266" lon="-1.96213">
        <ele>14.6</ele>
        <time>2024-03-22T08:33:06Z</time>
      </trkpt>
      <trkpt lat="46.72267" lon="-1.96198">
        <ele>14.6</ele>
        <time>2024-03-22T08:33:13Z</time>
      </trkpt>
      <trkpt lat="46.72268" lon="-1.96182">
        <ele>14.6</ele>
        <time>2024-03-22T08:33:19Z</time>
      </trkpt>
      <trkpt lat="46.72271" lon="-1.96169">
        <ele>14.6</ele>
        <time>2024-03-22T08:33:27Z</time>
      </trkpt>
      <trkpt lat="46.72271" lon="-1.96152">
        <ele>14.5</ele>
        <time>2024-03-22T08:33:35Z</time>
      </trkpt>
      <trkpt lat="46.72272" lon="-1.96138">
        <ele>14.4</ele>
        <time>2024-03-22T08:33:39Z</time>
      </trkpt>
      <trkpt lat="46.72273" lon="-1.96125">
        <ele>14.3</ele>
        <time>2024-03-22T08:33:46Z</time>
      </trkpt>
      <trkpt lat="46.72275" lon="-1.96111">
        <ele>14.4</ele>
        <time>2024-03-22T08:33:56Z</time>
      </trkpt>
      <trkpt lat="46.72276" lon="-1.96097">
        <ele>14.5</ele>
        <time>2024-03-22T08:34:01Z</time>
      </trkpt>
      <trkpt lat="46.72277" lon="-1.96082">
        <ele>14.7</ele>
        <time>2024-03-22T08:34:12Z</time>
      </trkpt>
      <trkpt lat="46.72276" lon="-1.96066">
        <ele>14.8</ele>
        <time>2024-03-22T08:34:17Z</time>
      </trkpt>
      <trkpt lat="46.72277" lon="-1.96052">
        <ele>15</ele>
        <time>2024-03-22T08:34:22Z</time>
      </trkpt>
      <trkpt lat="46.72272" lon="-1.9604">
        <ele>15.3</ele>
        <time>2024-03-22T08:34:31Z</time>
      </trkpt>
      <trkpt lat="46.72269" lon="-1.96027">
        <ele>15.4</ele>
        <time>2024-03-22T08:34:36Z</time>
      </trkpt>
      <trkpt lat="46.72268" lon="-1.96013">
        <ele>15.8</ele>
        <time>2024-03-22T08:34:44Z</time>
      </trkpt>
      <trkpt lat="46.72264" lon="-1.96">
        <ele>16.4</ele>
        <time>2024-03-22T08:34:51Z</time>
      </trkpt>
      <trkpt lat="46.72261" lon="-1.95987">
        <ele>17.4</ele>
        <time>2024-03-22T08:35:01Z</time>
      </trkpt>
      <trkpt lat="46.72258" lon="-1.95971">
        <ele>18.3</ele>
        <time>2024-03-22T08:35:09Z</time>
      </trkpt>
      <trkpt lat="46.72257" lon="-1.95957">
        <ele>18.5</ele>
        <time>2024-03-22T08:35:15Z</time>
      </trkpt>
      <trkpt lat="46.72257" lon="-1.95943">
        <ele>18.1</ele>
        <time>2024-03-22T08:35:21Z</time>
      </trkpt>
      <trkpt lat="46.7226" lon="-1.95931">
        <ele>17.5</ele>
        <time>2024-03-22T08:35:29Z</time>
      </trkpt>
      <trkpt lat="46.72262" lon="-1.95918">
        <ele>16</ele>
        <time>2024-03-22T08:35:43Z</time>
      </trkpt>
      <trkpt lat="46.72266" lon="-1.95899">
        <ele>16.2</ele>
        <time>2024-03-22T08:35:50Z</time>
      </trkpt>
      <trkpt lat="46.7227" lon="-1.95884">
        <ele>16</ele>
        <time>2024-03-22T08:35:56Z</time>
      </trkpt>
      <trkpt lat="46.72269" lon="-1.95868">
        <ele>16.4</ele>
        <time>2024-03-22T08:36:11Z</time>
      </trkpt>
      <trkpt lat="46.72268" lon="-1.95852">
        <ele>16.3</ele>
        <time>2024-03-22T08:36:18Z</time>
      </trkpt>
      <trkpt lat="46.72263" lon="-1.95839">
        <ele>16.2</ele>
        <time>2024-03-22T08:36:23Z</time>
      </trkpt>
      <trkpt lat="46.72262" lon="-1.95825">
        <ele>16.1</ele>
        <time>2024-03-22T08:36:32Z</time>
      </trkpt>
      <trkpt lat="46.72262" lon="-1.95811">
        <ele>16.1</ele>
        <time>2024-03-22T08:36:40Z</time>
      </trkpt>
      <trkpt lat="46.72261" lon="-1.95796">
        <ele>15.8</ele>
        <time>2024-03-22T08:36:49Z</time>
      </trkpt>
      <trkpt lat="46.72262" lon="-1.95782">
        <ele>15.7</ele>
        <time>2024-03-22T08:36:54Z</time>
      </trkpt>
      <trkpt lat="46.72262" lon="-1.95767">
        <ele>15.6</ele>
        <time>2024-03-22T08:37:01Z</time>
      </trkpt>
      <trkpt lat="46.72262" lon="-1.95752">
        <ele>15.6</ele>
        <time>2024-03-22T08:37:07Z</time>
      </trkpt>
      <trkpt lat="46.72264" lon="-1.95737">
        <ele>15.7</ele>
        <time>2024-03-22T08:37:12Z</time>
      </trkpt>
      <trkpt lat="46.72268" lon="-1.95723">
        <ele>16</ele>
        <time>2024-03-22T08:37:18Z</time>
      </trkpt>
      <trkpt lat="46.72275" lon="-1.95715">
        <ele>16.2</ele>
        <time>2024-03-22T08:37:24Z</time>
      </trkpt>
      <trkpt lat="46.72279" lon="-1.95702">
        <ele>16.5</ele>
        <time>2024-03-22T08:37:31Z</time>
      </trkpt>
      <trkpt lat="46.72281" lon="-1.95689">
        <ele>16.6</ele>
        <time>2024-03-22T08:37:37Z</time>
      </trkpt>
      <trkpt lat="46.72283" lon="-1.95676">
        <ele>16.4</ele>
        <time>2024-03-22T08:37:47Z</time>
      </trkpt>
      <trkpt lat="46.72288" lon="-1.95665">
        <ele>15.9</ele>
        <time>2024-03-22T08:37:54Z</time>
      </trkpt>
      <trkpt lat="46.72295" lon="-1.95654">
        <ele>15.2</ele>
        <time>2024-03-22T08:38:02Z</time>
      </trkpt>
      <trkpt lat="46.72301" lon="-1.95644">
        <ele>14.4</ele>
        <time>2024-03-22T08:38:13Z</time>
      </trkpt>
      <trkpt lat="46.72307" lon="-1.95634">
        <ele>13.9</ele>
        <time>2024-03-22T08:38:23Z</time>
      </trkpt>
      <trkpt lat="46.72313" lon="-1.95645">
        <ele>14.2</ele>
        <time>2024-03-22T08:38:46Z</time>
      </trkpt>
      <trkpt lat="46.72319" lon="-1.95655">
        <ele>14.4</ele>
        <time>2024-03-22T08:38:54Z</time>
      </trkpt>
      <trkpt lat="46.72324" lon="-1.95669">
        <ele>14.4</ele>
        <time>2024-03-22T08:39:02Z</time>
      </trkpt>
      <trkpt lat="46.72329" lon="-1.95681">
        <ele>14.3</ele>
        <time>2024-03-22T08:39:10Z</time>
      </trkpt>
      <trkpt lat="46.72336" lon="-1.95692">
        <ele>14.2</ele>
        <time>2024-03-22T08:39:16Z</time>
      </trkpt>
      <trkpt lat="46.72343" lon="-1.95702">
        <ele>14</ele>
        <time>2024-03-22T08:39:24Z</time>
      </trkpt>
      <trkpt lat="46.72348" lon="-1.95713">
        <ele>13.8</ele>
        <time>2024-03-22T08:39:31Z</time>
      </trkpt>
      <trkpt lat="46.72355" lon="-1.95725">
        <ele>13.3</ele>
        <time>2024-03-22T08:39:39Z</time>
      </trkpt>
      <trkpt lat="46.72362" lon="-1.95736">
        <ele>13.3</ele>
        <time>2024-03-22T08:39:45Z</time>
      </trkpt>
      <trkpt lat="46.72368" lon="-1.95745">
        <ele>13.3</ele>
        <time>2024-03-22T08:39:53Z</time>
      </trkpt>
      <trkpt lat="46.72375" lon="-1.95756">
        <ele>13.2</ele>
        <time>2024-03-22T08:40:08Z</time>
      </trkpt>
      <trkpt lat="46.72378" lon="-1.95768">
        <ele>13.2</ele>
        <time>2024-03-22T08:40:17Z</time>
      </trkpt>
      <trkpt lat="46.72383" lon="-1.9578">
        <ele>13.4</ele>
        <time>2024-03-22T08:40:25Z</time>
      </trkpt>
      <trkpt lat="46.7239" lon="-1.95789">
        <ele>13.2</ele>
        <time>2024-03-22T08:40:33Z</time>
      </trkpt>
      <trkpt lat="46.72399" lon="-1.95794">
        <ele>12.8</ele>
        <time>2024-03-22T08:40:40Z</time>
      </trkpt>
      <trkpt lat="46.72408" lon="-1.958">
        <ele>12.5</ele>
        <time>2024-03-22T08:40:47Z</time>
      </trkpt>
      <trkpt lat="46.72416" lon="-1.95792">
        <ele>12.4</ele>
        <time>2024-03-22T08:40:57Z</time>
      </trkpt>
      <trkpt lat="46.72425" lon="-1.95791">
        <ele>12.4</ele>
        <time>2024-03-22T08:41:29Z</time>
      </trkpt>
      <trkpt lat="46.72433" lon="-1.95797">
        <ele>12.4</ele>
        <time>2024-03-22T08:41:37Z</time>
      </trkpt>
      <trkpt lat="46.72442" lon="-1.95799">
        <ele>12.2</ele>
        <time>2024-03-22T08:41:45Z</time>
      </trkpt>
      <trkpt lat="46.72451" lon="-1.95807">
        <ele>11.6</ele>
        <time>2024-03-22T08:41:55Z</time>
      </trkpt>
      <trkpt lat="46.7246" lon="-1.95812">
        <ele>11</ele>
        <time>2024-03-22T08:42:04Z</time>
      </trkpt>
      <trkpt lat="46.72469" lon="-1.95809">
        <ele>11</ele>
        <time>2024-03-22T08:42:12Z</time>
      </trkpt>
      <trkpt lat="46.72478" lon="-1.95808">
        <ele>10.9</ele>
        <time>2024-03-22T08:42:29Z</time>
      </trkpt>
      <trkpt lat="46.72485" lon="-1.95819">
        <ele>10.8</ele>
        <time>2024-03-22T08:42:36Z</time>
      </trkpt>
      <trkpt lat="46.7249" lon="-1.95832">
        <ele>11</ele>
        <time>2024-03-22T08:42:53Z</time>
      </trkpt>
      <trkpt lat="46.72494" lon="-1.95845">
        <ele>11</ele>
        <time>2024-03-22T08:43:00Z</time>
      </trkpt>
      <trkpt lat="46.72499" lon="-1.95857">
        <ele>10.9</ele>
        <time>2024-03-22T08:43:07Z</time>
      </trkpt>
      <trkpt lat="46.72505" lon="-1.95868">
        <ele>10.8</ele>
        <time>2024-03-22T08:43:14Z</time>
      </trkpt>
      <trkpt lat="46.72508" lon="-1.95881">
        <ele>10.6</ele>
        <time>2024-03-22T08:43:23Z</time>
      </trkpt>
      <trkpt lat="46.72517" lon="-1.95888">
        <ele>10.5</ele>
        <time>2024-03-22T08:43:39Z</time>
      </trkpt>
      <trkpt lat="46.72525" lon="-1.95893">
        <ele>10.3</ele>
        <time>2024-03-22T08:43:47Z</time>
      </trkpt>
      <trkpt lat="46.72535" lon="-1.95891">
        <ele>10</ele>
        <time>2024-03-22T08:43:53Z</time>
      </trkpt>
      <trkpt lat="46.72544" lon="-1.95885">
        <ele>9.6</ele>
        <time>2024-03-22T08:44:00Z</time>
      </trkpt>
      <trkpt lat="46.72552" lon="-1.95878">
        <ele>9.4</ele>
        <time>2024-03-22T08:44:07Z</time>
      </trkpt>
      <trkpt lat="46.72563" lon="-1.95873">
        <ele>9.4</ele>
        <time>2024-03-22T08:44:14Z</time>
      </trkpt>
      <trkpt lat="46.72572" lon="-1.9587">
        <ele>9.1</ele>
        <time>2024-03-22T08:44:21Z</time>
      </trkpt>
      <trkpt lat="46.72581" lon="-1.95864">
        <ele>9</ele>
        <time>2024-03-22T08:44:27Z</time>
      </trkpt>
      <trkpt lat="46.7259" lon="-1.95861">
        <ele>8.9</ele>
        <time>2024-03-22T08:44:33Z</time>
      </trkpt>
      <trkpt lat="46.726" lon="-1.95856">
        <ele>8.8</ele>
        <time>2024-03-22T08:44:40Z</time>
      </trkpt>
      <trkpt lat="46.72608" lon="-1.95852">
        <ele>8.8</ele>
        <time>2024-03-22T08:44:46Z</time>
      </trkpt>
      <trkpt lat="46.72618" lon="-1.95848">
        <ele>8.9</ele>
        <time>2024-03-22T08:44:53Z</time>
      </trkpt>
      <trkpt lat="46.72627" lon="-1.95846">
        <ele>8.7</ele>
        <time>2024-03-22T08:45:01Z</time>
      </trkpt>
      <trkpt lat="46.72636" lon="-1.9584">
        <ele>8.6</ele>
        <time>2024-03-22T08:45:07Z</time>
      </trkpt>
      <trkpt lat="46.72644" lon="-1.95832">
        <ele>8.4</ele>
        <time>2024-03-22T08:45:13Z</time>
      </trkpt>
      <trkpt lat="46.7265" lon="-1.9582">
        <ele>8.2</ele>
        <time>2024-03-22T08:45:20Z</time>
      </trkpt>
      <trkpt lat="46.72657" lon="-1.95811">
        <ele>8.1</ele>
        <time>2024-03-22T08:45:29Z</time>
      </trkpt>
      <trkpt lat="46.72662" lon="-1.95797">
        <ele>8</ele>
        <time>2024-03-22T08:45:36Z</time>
      </trkpt>
      <trkpt lat="46.72667" lon="-1.95783">
        <ele>8</ele>
        <time>2024-03-22T08:45:43Z</time>
      </trkpt>
      <trkpt lat="46.7267" lon="-1.9577">
        <ele>8.1</ele>
        <time>2024-03-22T08:45:49Z</time>
      </trkpt>
      <trkpt lat="46.72673" lon="-1.95757">
        <ele>8.2</ele>
        <time>2024-03-22T08:45:55Z</time>
      </trkpt>
      <trkpt lat="46.72675" lon="-1.95743">
        <ele>8.1</ele>
        <time>2024-03-22T08:46:02Z</time>
      </trkpt>
      <trkpt lat="46.72677" lon="-1.95729">
        <ele>8.1</ele>
        <time>2024-03-22T08:46:09Z</time>
      </trkpt>
      <trkpt lat="46.7268" lon="-1.95716">
        <ele>8.2</ele>
        <time>2024-03-22T08:46:15Z</time>
      </trkpt>
      <trkpt lat="46.72682" lon="-1.95702">
        <ele>8.3</ele>
        <time>2024-03-22T08:46:22Z</time>
      </trkpt>
      <trkpt lat="46.72684" lon="-1.95688">
        <ele>8.3</ele>
        <time>2024-03-22T08:46:29Z</time>
      </trkpt>
      <trkpt lat="46.72687" lon="-1.95675">
        <ele>8.3</ele>
        <time>2024-03-22T08:46:35Z</time>
      </trkpt>
      <trkpt lat="46.7269" lon="-1.95662">
        <ele>8.3</ele>
        <time>2024-03-22T08:46:43Z</time>
      </trkpt>
      <trkpt lat="46.72689" lon="-1.95649">
        <ele>8.3</ele>
        <time>2024-03-22T08:47:03Z</time>
      </trkpt>
      <trkpt lat="46.72691" lon="-1.95636">
        <ele>8.4</ele>
        <time>2024-03-22T08:47:11Z</time>
      </trkpt>
      <trkpt lat="46.72691" lon="-1.95621">
        <ele>8.5</ele>
        <time>2024-03-22T08:47:50Z</time>
      </trkpt>
      <trkpt lat="46.7269" lon="-1.95608">
        <ele>8.4</ele>
        <time>2024-03-22T08:47:57Z</time>
      </trkpt>
      <trkpt lat="46.72691" lon="-1.95594">
        <ele>8.6</ele>
        <time>2024-03-22T08:48:04Z</time>
      </trkpt>
      <trkpt lat="46.72689" lon="-1.9558">
        <ele>8.7</ele>
        <time>2024-03-22T08:48:16Z</time>
      </trkpt>
      <trkpt lat="46.72688" lon="-1.95565">
        <ele>8.7</ele>
        <time>2024-03-22T08:48:23Z</time>
      </trkpt>
      <trkpt lat="46.72686" lon="-1.95552">
        <ele>8.6</ele>
        <time>2024-03-22T08:48:29Z</time>
      </trkpt>
      <trkpt lat="46.72684" lon="-1.95538">
        <ele>8.6</ele>
        <time>2024-03-22T08:48:35Z</time>
      </trkpt>
      <trkpt lat="46.7268" lon="-1.95524">
        <ele>8.5</ele>
        <time>2024-03-22T08:48:42Z</time>
      </trkpt>
      <trkpt lat="46.72677" lon="-1.9551">
        <ele>8.7</ele>
        <time>2024-03-22T08:48:49Z</time>
      </trkpt>
      <trkpt lat="46.72673" lon="-1.95497">
        <ele>8.8</ele>
        <time>2024-03-22T08:48:55Z</time>
      </trkpt>
      <trkpt lat="46.7267" lon="-1.95483">
        <ele>8.8</ele>
        <time>2024-03-22T08:49:01Z</time>
      </trkpt>
      <trkpt lat="46.72668" lon="-1.9547">
        <ele>8.8</ele>
        <time>2024-03-22T08:49:07Z</time>
      </trkpt>
      <trkpt lat="46.72668" lon="-1.95455">
        <ele>8.8</ele>
        <time>2024-03-22T08:49:14Z</time>
      </trkpt>
      <trkpt lat="46.7267" lon="-1.9544">
        <ele>8.9</ele>
        <time>2024-03-22T08:49:21Z</time>
      </trkpt>
      <trkpt lat="46.72673" lon="-1.95427">
        <ele>9</ele>
        <time>2024-03-22T08:49:28Z</time>
      </trkpt>
      <trkpt lat="46.72675" lon="-1.95414">
        <ele>9.1</ele>
        <time>2024-03-22T08:49:36Z</time>
      </trkpt>
      <trkpt lat="46.72677" lon="-1.95401">
        <ele>9.1</ele>
        <time>2024-03-22T08:49:45Z</time>
      </trkpt>
      <trkpt lat="46.72681" lon="-1.95388">
        <ele>9.1</ele>
        <time>2024-03-22T08:49:52Z</time>
      </trkpt>
      <trkpt lat="46.72684" lon="-1.95375">
        <ele>9.2</ele>
        <time>2024-03-22T08:49:59Z</time>
      </trkpt>
      <trkpt lat="46.72688" lon="-1.95363">
        <ele>9.2</ele>
        <time>2024-03-22T08:50:07Z</time>
      </trkpt>
      <trkpt lat="46.72697" lon="-1.95356">
        <ele>9.1</ele>
        <time>2024-03-22T08:50:14Z</time>
      </trkpt>
      <trkpt lat="46.72706" lon="-1.95351">
        <ele>9</ele>
        <time>2024-03-22T08:50:21Z</time>
      </trkpt>
      <trkpt lat="46.72715" lon="-1.95344">
        <ele>9.1</ele>
        <time>2024-03-22T08:50:28Z</time>
      </trkpt>
      <trkpt lat="46.72723" lon="-1.95338">
        <ele>9.1</ele>
        <time>2024-03-22T08:50:34Z</time>
      </trkpt>
      <trkpt lat="46.72733" lon="-1.95332">
        <ele>9.1</ele>
        <time>2024-03-22T08:50:41Z</time>
      </trkpt>
      <trkpt lat="46.7274" lon="-1.95322">
        <ele>9.2</ele>
        <time>2024-03-22T08:50:49Z</time>
      </trkpt>
      <trkpt lat="46.7275" lon="-1.95325">
        <ele>9.1</ele>
        <time>2024-03-22T08:50:58Z</time>
      </trkpt>
      <trkpt lat="46.72759" lon="-1.9533">
        <ele>9</ele>
        <time>2024-03-22T08:51:05Z</time>
      </trkpt>
      <trkpt lat="46.72768" lon="-1.95333">
        <ele>9</ele>
        <time>2024-03-22T08:51:11Z</time>
      </trkpt>
      <trkpt lat="46.72777" lon="-1.9534">
        <ele>9</ele>
        <time>2024-03-22T08:51:17Z</time>
      </trkpt>
      <trkpt lat="46.72786" lon="-1.95346">
        <ele>8.9</ele>
        <time>2024-03-22T08:51:23Z</time>
      </trkpt>
      <trkpt lat="46.72794" lon="-1.95353">
        <ele>8.8</ele>
        <time>2024-03-22T08:51:29Z</time>
      </trkpt>
      <trkpt lat="46.72801" lon="-1.95362">
        <ele>8.7</ele>
        <time>2024-03-22T08:51:35Z</time>
      </trkpt>
      <trkpt lat="46.72807" lon="-1.95372">
        <ele>8.7</ele>
        <time>2024-03-22T08:51:41Z</time>
      </trkpt>
      <trkpt lat="46.72814" lon="-1.95382">
        <ele>8.6</ele>
        <time>2024-03-22T08:51:47Z</time>
      </trkpt>
      <trkpt lat="46.72822" lon="-1.95392">
        <ele>8.6</ele>
        <time>2024-03-22T08:51:54Z</time>
      </trkpt>
      <trkpt lat="46.72829" lon="-1.95401">
        <ele>8.5</ele>
        <time>2024-03-22T08:52:00Z</time>
      </trkpt>
      <trkpt lat="46.72836" lon="-1.95409">
        <ele>8.4</ele>
        <time>2024-03-22T08:52:06Z</time>
      </trkpt>
      <trkpt lat="46.72844" lon="-1.95418">
        <ele>8.2</ele>
        <time>2024-03-22T08:52:13Z</time>
      </trkpt>
      <trkpt lat="46.72854" lon="-1.95422">
        <ele>8</ele>
        <time>2024-03-22T08:52:21Z</time>
      </trkpt>
      <trkpt lat="46.72863" lon="-1.95426">
        <ele>7.9</ele>
        <time>2024-03-22T08:52:28Z</time>
      </trkpt>
      <trkpt lat="46.72872" lon="-1.95432">
        <ele>8</ele>
        <time>2024-03-22T08:52:35Z</time>
      </trkpt>
      <trkpt lat="46.7288" lon="-1.95441">
        <ele>7.9</ele>
        <time>2024-03-22T08:52:42Z</time>
      </trkpt>
      <trkpt lat="46.72887" lon="-1.9545">
        <ele>7.7</ele>
        <time>2024-03-22T08:52:48Z</time>
      </trkpt>
      <trkpt lat="46.72891" lon="-1.95463">
        <ele>7.8</ele>
        <time>2024-03-22T08:53:11Z</time>
      </trkpt>
      <trkpt lat="46.72896" lon="-1.95475">
        <ele>7.8</ele>
        <time>2024-03-22T08:53:18Z</time>
      </trkpt>
      <trkpt lat="46.72902" lon="-1.95486">
        <ele>7.8</ele>
        <time>2024-03-22T08:53:24Z</time>
      </trkpt>
      <trkpt lat="46.72907" lon="-1.95497">
        <ele>7.6</ele>
        <time>2024-03-22T08:53:30Z</time>
      </trkpt>
      <trkpt lat="46.72912" lon="-1.9551">
        <ele>7.5</ele>
        <time>2024-03-22T08:53:37Z</time>
      </trkpt>
      <trkpt lat="46.72916" lon="-1.95522">
        <ele>7.5</ele>
        <time>2024-03-22T08:53:43Z</time>
      </trkpt>
      <trkpt lat="46.72921" lon="-1.95535">
        <ele>7.4</ele>
        <time>2024-03-22T08:53:50Z</time>
      </trkpt>
      <trkpt lat="46.72926" lon="-1.95546">
        <ele>7.4</ele>
        <time>2024-03-22T08:53:56Z</time>
      </trkpt>
      <trkpt lat="46.72928" lon="-1.95559">
        <ele>7.4</ele>
        <time>2024-03-22T08:54:02Z</time>
      </trkpt>
      <trkpt lat="46.7293" lon="-1.95573">
        <ele>7.4</ele>
        <time>2024-03-22T08:54:10Z</time>
      </trkpt>
      <trkpt lat="46.7293" lon="-1.95588">
        <ele>7.4</ele>
        <time>2024-03-22T08:54:17Z</time>
      </trkpt>
      <trkpt lat="46.72931" lon="-1.95603">
        <ele>7.3</ele>
        <time>2024-03-22T08:54:23Z</time>
      </trkpt>
      <trkpt lat="46.72932" lon="-1.95617">
        <ele>7.2</ele>
        <time>2024-03-22T08:54:30Z</time>
      </trkpt>
      <trkpt lat="46.72932" lon="-1.95631">
        <ele>7.2</ele>
        <time>2024-03-22T08:54:37Z</time>
      </trkpt>
      <trkpt lat="46.72936" lon="-1.95645">
        <ele>7.3</ele>
        <time>2024-03-22T08:54:44Z</time>
      </trkpt>
      <trkpt lat="46.7294" lon="-1.95658">
        <ele>7.3</ele>
        <time>2024-03-22T08:54:51Z</time>
      </trkpt>
      <trkpt lat="46.72947" lon="-1.95669">
        <ele>7.3</ele>
        <time>2024-03-22T08:54:58Z</time>
      </trkpt>
      <trkpt lat="46.72954" lon="-1.9568">
        <ele>7.4</ele>
        <time>2024-03-22T08:55:05Z</time>
      </trkpt>
      <trkpt lat="46.72959" lon="-1.95692">
        <ele>7.4</ele>
        <time>2024-03-22T08:55:11Z</time>
      </trkpt>
      <trkpt lat="46.72965" lon="-1.95702">
        <ele>7.5</ele>
        <time>2024-03-22T08:55:17Z</time>
      </trkpt>
      <trkpt lat="46.7297" lon="-1.95713">
        <ele>7.5</ele>
        <time>2024-03-22T08:55:23Z</time>
      </trkpt>
      <trkpt lat="46.72977" lon="-1.95722">
        <ele>7.6</ele>
        <time>2024-03-22T08:55:31Z</time>
      </trkpt>
      <trkpt lat="46.72984" lon="-1.95732">
        <ele>7.5</ele>
        <time>2024-03-22T08:55:52Z</time>
      </trkpt>
      <trkpt lat="46.7299" lon="-1.95741">
        <ele>7.5</ele>
        <time>2024-03-22T08:56:00Z</time>
      </trkpt>
      <trkpt lat="46.73" lon="-1.95746">
        <ele>7.6</ele>
        <time>2024-03-22T08:56:09Z</time>
      </trkpt>
      <trkpt lat="46.73002" lon="-1.95761">
        <ele>7.5</ele>
        <time>2024-03-22T08:56:37Z</time>
      </trkpt>
      <trkpt lat="46.73005" lon="-1.95775">
        <ele>7.5</ele>
        <time>2024-03-22T08:56:44Z</time>
      </trkpt>
      <trkpt lat="46.73009" lon="-1.95789">
        <ele>7.5</ele>
        <time>2024-03-22T08:56:51Z</time>
      </trkpt>
      <trkpt lat="46.73013" lon="-1.95801">
        <ele>7.5</ele>
        <time>2024-03-22T08:56:58Z</time>
      </trkpt>
      <trkpt lat="46.73016" lon="-1.95814">
        <ele>7.6</ele>
        <time>2024-03-22T08:57:05Z</time>
      </trkpt>
      <trkpt lat="46.73022" lon="-1.95827">
        <ele>7.6</ele>
        <time>2024-03-22T08:57:12Z</time>
      </trkpt>
      <trkpt lat="46.73028" lon="-1.95836">
        <ele>7.6</ele>
        <time>2024-03-22T08:57:18Z</time>
      </trkpt>
      <trkpt lat="46.73037" lon="-1.95842">
        <ele>7.5</ele>
        <time>2024-03-22T08:57:25Z</time>
      </trkpt>
      <trkpt lat="46.73048" lon="-1.95845">
        <ele>7.4</ele>
        <time>2024-03-22T08:57:32Z</time>
      </trkpt>
      <trkpt lat="46.73057" lon="-1.95848">
        <ele>7.6</ele>
        <time>2024-03-22T08:57:39Z</time>
      </trkpt>
      <trkpt lat="46.73067" lon="-1.95852">
        <ele>7.5</ele>
        <time>2024-03-22T08:57:46Z</time>
      </trkpt>
      <trkpt lat="46.73076" lon="-1.95856">
        <ele>7.6</ele>
        <time>2024-03-22T08:57:53Z</time>
      </trkpt>
      <trkpt lat="46.73085" lon="-1.95862">
        <ele>7.9</ele>
        <time>2024-03-22T08:58:18Z</time>
      </trkpt>
      <trkpt lat="46.73094" lon="-1.95868">
        <ele>7.8</ele>
        <time>2024-03-22T08:58:25Z</time>
      </trkpt>
      <trkpt lat="46.73102" lon="-1.95876">
        <ele>7.7</ele>
        <time>2024-03-22T08:58:32Z</time>
      </trkpt>
      <trkpt lat="46.73112" lon="-1.95881">
        <ele>7.7</ele>
        <time>2024-03-22T08:58:39Z</time>
      </trkpt>
      <trkpt lat="46.73122" lon="-1.95885">
        <ele>7.7</ele>
        <time>2024-03-22T08:58:46Z</time>
      </trkpt>
      <trkpt lat="46.73132" lon="-1.9589">
        <ele>7.7</ele>
        <time>2024-03-22T08:58:53Z</time>
      </trkpt>
      <trkpt lat="46.73141" lon="-1.95891">
        <ele>7.5</ele>
        <time>2024-03-22T08:58:59Z</time>
      </trkpt>
      <trkpt lat="46.7315" lon="-1.95895">
        <ele>7.5</ele>
        <time>2024-03-22T08:59:06Z</time>
      </trkpt>
      <trkpt lat="46.73159" lon="-1.95897">
        <ele>7.6</ele>
        <time>2024-03-22T08:59:12Z</time>
      </trkpt>
      <trkpt lat="46.73169" lon="-1.959">
        <ele>7.6</ele>
        <time>2024-03-22T08:59:19Z</time>
      </trkpt>
      <trkpt lat="46.73178" lon="-1.95906">
        <ele>7.6</ele>
        <time>2024-03-22T08:59:26Z</time>
      </trkpt>
      <trkpt lat="46.73187" lon="-1.95911">
        <ele>7.6</ele>
        <time>2024-03-22T08:59:33Z</time>
      </trkpt>
      <trkpt lat="46.73196" lon="-1.95918">
        <ele>7.6</ele>
        <time>2024-03-22T08:59:40Z</time>
      </trkpt>
      <trkpt lat="46.73204" lon="-1.95925">
        <ele>7.6</ele>
        <time>2024-03-22T09:00:01Z</time>
      </trkpt>
      <trkpt lat="46.73213" lon="-1.95931">
        <ele>7.6</ele>
        <time>2024-03-22T09:00:08Z</time>
      </trkpt>
      <trkpt lat="46.73221" lon="-1.95939">
        <ele>7.5</ele>
        <time>2024-03-22T09:00:15Z</time>
      </trkpt>
      <trkpt lat="46.7323" lon="-1.95945">
        <ele>7.5</ele>
        <time>2024-03-22T09:00:22Z</time>
      </trkpt>
      <trkpt lat="46.7324" lon="-1.95951">
        <ele>7.5</ele>
        <time>2024-03-22T09:00:29Z</time>
      </trkpt>
      <trkpt lat="46.73249" lon="-1.95955">
        <ele>7.5</ele>
        <time>2024-03-22T09:00:36Z</time>
      </trkpt>
      <trkpt lat="46.73259" lon="-1.95956">
        <ele>7.5</ele>
        <time>2024-03-22T09:00:42Z</time>
      </trkpt>
      <trkpt lat="46.73269" lon="-1.95955">
        <ele>7.6</ele>
        <time>2024-03-22T09:00:49Z</time>
      </trkpt>
      <trkpt lat="46.73279" lon="-1.95955">
        <ele>7.5</ele>
        <time>2024-03-22T09:00:56Z</time>
      </trkpt>
      <trkpt lat="46.73289" lon="-1.95955">
        <ele>7.5</ele>
        <time>2024-03-22T09:01:03Z</time>
      </trkpt>
      <trkpt lat="46.73298" lon="-1.95956">
        <ele>7.4</ele>
        <time>2024-03-22T09:01:09Z</time>
      </trkpt>
      <trkpt lat="46.73308" lon="-1.95959">
        <ele>7.3</ele>
        <time>2024-03-22T09:01:16Z</time>
      </trkpt>
      <trkpt lat="46.73318" lon="-1.9596">
        <ele>7.4</ele>
        <time>2024-03-22T09:01:23Z</time>
      </trkpt>
      <trkpt lat="46.73328" lon="-1.95961">
        <ele>7.2</ele>
        <time>2024-03-22T09:01:30Z</time>
      </trkpt>
      <trkpt lat="46.73338" lon="-1.95966">
        <ele>7.2</ele>
        <time>2024-03-22T09:01:38Z</time>
      </trkpt>
      <trkpt lat="46.73348" lon="-1.95967">
        <ele>7.3</ele>
        <time>2024-03-22T09:01:45Z</time>
      </trkpt>
      <trkpt lat="46.73357" lon="-1.9597">
        <ele>7.2</ele>
        <time>2024-03-22T09:01:51Z</time>
      </trkpt>
      <trkpt lat="46.73367" lon="-1.95971">
        <ele>7.2</ele>
        <time>2024-03-22T09:01:58Z</time>
      </trkpt>
      <trkpt lat="46.73377" lon="-1.95968">
        <ele>7.2</ele>
        <time>2024-03-22T09:02:04Z</time>
      </trkpt>
      <trkpt lat="46.73387" lon="-1.95969">
        <ele>7.2</ele>
        <time>2024-03-22T09:02:12Z</time>
      </trkpt>
      <trkpt lat="46.73396" lon="-1.9597">
        <ele>7.3</ele>
        <time>2024-03-22T09:02:19Z</time>
      </trkpt>
      <trkpt lat="46.73406" lon="-1.95972">
        <ele>7.4</ele>
        <time>2024-03-22T09:02:26Z</time>
      </trkpt>
      <trkpt lat="46.73416" lon="-1.95973">
        <ele>7.4</ele>
        <time>2024-03-22T09:02:33Z</time>
      </trkpt>
      <trkpt lat="46.73426" lon="-1.95972">
        <ele>7.4</ele>
        <time>2024-03-22T09:02:40Z</time>
      </trkpt>
      <trkpt lat="46.73435" lon="-1.95972">
        <ele>7.4</ele>
        <time>2024-03-22T09:02:47Z</time>
      </trkpt>
      <trkpt lat="46.73445" lon="-1.95971">
        <ele>7.3</ele>
        <time>2024-03-22T09:02:54Z</time>
      </trkpt>
      <trkpt lat="46.73454" lon="-1.95969">
        <ele>7.3</ele>
        <time>2024-03-22T09:03:01Z</time>
      </trkpt>
      <trkpt lat="46.73464" lon="-1.95968">
        <ele>7.4</ele>
        <time>2024-03-22T09:03:08Z</time>
      </trkpt>
      <trkpt lat="46.73474" lon="-1.9597">
        <ele>7.4</ele>
        <time>2024-03-22T09:03:15Z</time>
      </trkpt>
      <trkpt lat="46.73483" lon="-1.95972">
        <ele>7.3</ele>
        <time>2024-03-22T09:03:22Z</time>
      </trkpt>
      <trkpt lat="46.73492" lon="-1.95977">
        <ele>7.3</ele>
        <time>2024-03-22T09:03:30Z</time>
      </trkpt>
      <trkpt lat="46.73503" lon="-1.95976">
        <ele>7.1</ele>
        <time>2024-03-22T09:03:37Z</time>
      </trkpt>
      <trkpt lat="46.7351" lon="-1.95966">
        <ele>7</ele>
        <time>2024-03-22T09:03:44Z</time>
      </trkpt>
      <trkpt lat="46.73515" lon="-1.95954">
        <ele>7</ele>
        <time>2024-03-22T09:03:50Z</time>
      </trkpt>
      <trkpt lat="46.73522" lon="-1.95943">
        <ele>7</ele>
        <time>2024-03-22T09:03:57Z</time>
      </trkpt>
      <trkpt lat="46.7353" lon="-1.95933">
        <ele>6.9</ele>
        <time>2024-03-22T09:04:04Z</time>
      </trkpt>
      <trkpt lat="46.73539" lon="-1.9593">
        <ele>7</ele>
        <time>2024-03-22T09:04:11Z</time>
      </trkpt>
      <trkpt lat="46.73549" lon="-1.95931">
        <ele>7.1</ele>
        <time>2024-03-22T09:04:18Z</time>
      </trkpt>
      <trkpt lat="46.73557" lon="-1.95936">
        <ele>7.2</ele>
        <time>2024-03-22T09:04:25Z</time>
      </trkpt>
      <trkpt lat="46.73565" lon="-1.95943">
        <ele>7.2</ele>
        <time>2024-03-22T09:04:31Z</time>
      </trkpt>
      <trkpt lat="46.73574" lon="-1.95947">
        <ele>7</ele>
        <time>2024-03-22T09:04:37Z</time>
      </trkpt>
      <trkpt lat="46.73581" lon="-1.95957">
        <ele>7.1</ele>
        <time>2024-03-22T09:04:59Z</time>
      </trkpt>
      <trkpt lat="46.73591" lon="-1.95962">
        <ele>7</ele>
        <time>2024-03-22T09:05:06Z</time>
      </trkpt>
      <trkpt lat="46.736" lon="-1.95968">
        <ele>6.9</ele>
        <time>2024-03-22T09:05:13Z</time>
      </trkpt>
      <trkpt lat="46.7361" lon="-1.95973">
        <ele>6.9</ele>
        <time>2024-03-22T09:05:20Z</time>
      </trkpt>
      <trkpt lat="46.7362" lon="-1.95978">
        <ele>6.8</ele>
        <time>2024-03-22T09:05:27Z</time>
      </trkpt>
      <trkpt lat="46.73628" lon="-1.95982">
        <ele>6.8</ele>
        <time>2024-03-22T09:05:33Z</time>
      </trkpt>
      <trkpt lat="46.73637" lon="-1.95988">
        <ele>6.9</ele>
        <time>2024-03-22T09:05:40Z</time>
      </trkpt>
      <trkpt lat="46.73646" lon="-1.95992">
        <ele>6.8</ele>
        <time>2024-03-22T09:05:46Z</time>
      </trkpt>
      <trkpt lat="46.73655" lon="-1.95998">
        <ele>6.8</ele>
        <time>2024-03-22T09:05:53Z</time>
      </trkpt>
      <trkpt lat="46.73664" lon="-1.96001">
        <ele>6.8</ele>
        <time>2024-03-22T09:05:59Z</time>
      </trkpt>
      <trkpt lat="46.73673" lon="-1.96007">
        <ele>6.7</ele>
        <time>2024-03-22T09:06:06Z</time>
      </trkpt>
      <trkpt lat="46.73682" lon="-1.96012">
        <ele>6.7</ele>
        <time>2024-03-22T09:06:13Z</time>
      </trkpt>
      <trkpt lat="46.73691" lon="-1.96016">
        <ele>6.7</ele>
        <time>2024-03-22T09:06:19Z</time>
      </trkpt>
      <trkpt lat="46.737" lon="-1.9602">
        <ele>6.7</ele>
        <time>2024-03-22T09:06:25Z</time>
      </trkpt>
      <trkpt lat="46.73709" lon="-1.96025">
        <ele>6.6</ele>
        <time>2024-03-22T09:06:32Z</time>
      </trkpt>
      <trkpt lat="46.73719" lon="-1.96032">
        <ele>6.6</ele>
        <time>2024-03-22T09:06:39Z</time>
      </trkpt>
      <trkpt lat="46.73726" lon="-1.96042">
        <ele>6.6</ele>
        <time>2024-03-22T09:06:46Z</time>
      </trkpt>
      <trkpt lat="46.73729" lon="-1.96056">
        <ele>6.5</ele>
        <time>2024-03-22T09:06:54Z</time>
      </trkpt>
      <trkpt lat="46.73727" lon="-1.96069">
        <ele>6.6</ele>
        <time>2024-03-22T09:07:01Z</time>
      </trkpt>
      <trkpt lat="46.73723" lon="-1.96082">
        <ele>7.1</ele>
        <time>2024-03-22T09:07:45Z</time>
      </trkpt>
      <trkpt lat="46.73723" lon="-1.96095">
        <ele>7.5</ele>
        <time>2024-03-22T09:08:03Z</time>
      </trkpt>
      <trkpt lat="46.73722" lon="-1.9611">
        <ele>7.3</ele>
        <time>2024-03-22T09:08:10Z</time>
      </trkpt>
      <trkpt lat="46.7372" lon="-1.96124">
        <ele>7.2</ele>
        <time>2024-03-22T09:08:16Z</time>
      </trkpt>
      <trkpt lat="46.7372" lon="-1.96138">
        <ele>7.1</ele>
        <time>2024-03-22T09:08:22Z</time>
      </trkpt>
      <trkpt lat="46.7372" lon="-1.96153">
        <ele>7.1</ele>
        <time>2024-03-22T09:08:28Z</time>
      </trkpt>
      <trkpt lat="46.7372" lon="-1.96166">
        <ele>7.1</ele>
        <time>2024-03-22T09:08:34Z</time>
      </trkpt>
      <trkpt lat="46.7372" lon="-1.9618">
        <ele>7.1</ele>
        <time>2024-03-22T09:08:40Z</time>
      </trkpt>
      <trkpt lat="46.73719" lon="-1.96194">
        <ele>7.1</ele>
        <time>2024-03-22T09:08:46Z</time>
      </trkpt>
      <trkpt lat="46.73718" lon="-1.96209">
        <ele>7.2</ele>
        <time>2024-03-22T09:08:53Z</time>
      </trkpt>
      <trkpt lat="46.73716" lon="-1.96223">
        <ele>7.3</ele>
        <time>2024-03-22T09:09:00Z</time>
      </trkpt>
      <trkpt lat="46.73715" lon="-1.96238">
        <ele>7.4</ele>
        <time>2024-03-22T09:09:07Z</time>
      </trkpt>
      <trkpt lat="46.73715" lon="-1.96252">
        <ele>7.5</ele>
        <time>2024-03-22T09:09:14Z</time>
      </trkpt>
      <trkpt lat="46.73713" lon="-1.96265">
        <ele>7.4</ele>
        <time>2024-03-22T09:09:21Z</time>
      </trkpt>
      <trkpt lat="46.73712" lon="-1.96279">
        <ele>7.4</ele>
        <time>2024-03-22T09:09:28Z</time>
      </trkpt>
      <trkpt lat="46.73711" lon="-1.96292">
        <ele>7.5</ele>
        <time>2024-03-22T09:09:35Z</time>
      </trkpt>
      <trkpt lat="46.7371" lon="-1.96305">
        <ele>7.5</ele>
        <time>2024-03-22T09:09:42Z</time>
      </trkpt>
      <trkpt lat="46.73709" lon="-1.96318">
        <ele>7.5</ele>
        <time>2024-03-22T09:09:48Z</time>
      </trkpt>
      <trkpt lat="46.73708" lon="-1.96333">
        <ele>7.7</ele>
        <time>2024-03-22T09:09:56Z</time>
      </trkpt>
      <trkpt lat="46.73707" lon="-1.96348">
        <ele>7.7</ele>
        <time>2024-03-22T09:10:03Z</time>
      </trkpt>
      <trkpt lat="46.73707" lon="-1.96362">
        <ele>7.7</ele>
        <time>2024-03-22T09:10:10Z</time>
      </trkpt>
      <trkpt lat="46.73706" lon="-1.96375">
        <ele>7.7</ele>
        <time>2024-03-22T09:10:16Z</time>
      </trkpt>
      <trkpt lat="46.73705" lon="-1.96388">
        <ele>7.8</ele>
        <time>2024-03-22T09:10:23Z</time>
      </trkpt>
      <trkpt lat="46.73704" lon="-1.96403">
        <ele>7.8</ele>
        <time>2024-03-22T09:10:30Z</time>
      </trkpt>
      <trkpt lat="46.73703" lon="-1.96417">
        <ele>7.8</ele>
        <time>2024-03-22T09:10:37Z</time>
      </trkpt>
      <trkpt lat="46.73701" lon="-1.9643">
        <ele>7.8</ele>
        <time>2024-03-22T09:10:43Z</time>
      </trkpt>
      <trkpt lat="46.737" lon="-1.96445">
        <ele>7.8</ele>
        <time>2024-03-22T09:10:50Z</time>
      </trkpt>
      <trkpt lat="46.73699" lon="-1.9646">
        <ele>7.8</ele>
        <time>2024-03-22T09:10:57Z</time>
      </trkpt>
      <trkpt lat="46.73698" lon="-1.96474">
        <ele>7.9</ele>
        <time>2024-03-22T09:11:03Z</time>
      </trkpt>
      <trkpt lat="46.73697" lon="-1.96488">
        <ele>8</ele>
        <time>2024-03-22T09:11:10Z</time>
      </trkpt>
      <trkpt lat="46.73696" lon="-1.96502">
        <ele>7.9</ele>
        <time>2024-03-22T09:11:17Z</time>
      </trkpt>
      <trkpt lat="46.73695" lon="-1.96515">
        <ele>8</ele>
        <time>2024-03-22T09:11:23Z</time>
      </trkpt>
      <trkpt lat="46.73695" lon="-1.96528">
        <ele>8</ele>
        <time>2024-03-22T09:11:30Z</time>
      </trkpt>
      <trkpt lat="46.73694" lon="-1.96542">
        <ele>8.1</ele>
        <time>2024-03-22T09:11:36Z</time>
      </trkpt>
      <trkpt lat="46.73691" lon="-1.96556">
        <ele>8.1</ele>
        <time>2024-03-22T09:11:43Z</time>
      </trkpt>
      <trkpt lat="46.73686" lon="-1.96569">
        <ele>8.1</ele>
        <time>2024-03-22T09:11:50Z</time>
      </trkpt>
      <trkpt lat="46.73683" lon="-1.96583">
        <ele>8.1</ele>
        <time>2024-03-22T09:11:57Z</time>
      </trkpt>
      <trkpt lat="46.73681" lon="-1.96597">
        <ele>8.1</ele>
        <time>2024-03-22T09:12:04Z</time>
      </trkpt>
      <trkpt lat="46.73677" lon="-1.9661">
        <ele>8.3</ele>
        <time>2024-03-22T09:12:11Z</time>
      </trkpt>
      <trkpt lat="46.73674" lon="-1.96624">
        <ele>8.4</ele>
        <time>2024-03-22T09:12:18Z</time>
      </trkpt>
      <trkpt lat="46.73672" lon="-1.96638">
        <ele>8.4</ele>
        <time>2024-03-22T09:12:25Z</time>
      </trkpt>
      <trkpt lat="46.73669" lon="-1.96652">
        <ele>8.5</ele>
        <time>2024-03-22T09:12:32Z</time>
      </trkpt>
      <trkpt lat="46.73667" lon="-1.96665">
        <ele>8.5</ele>
        <time>2024-03-22T09:12:39Z</time>
      </trkpt>
      <trkpt lat="46.73664" lon="-1.9668">
        <ele>8.4</ele>
        <time>2024-03-22T09:12:46Z</time>
      </trkpt>
      <trkpt lat="46.73661" lon="-1.96694">
        <ele>8.3</ele>
        <time>2024-03-22T09:12:53Z</time>
      </trkpt>
      <trkpt lat="46.73658" lon="-1.96707">
        <ele>8.5</ele>
        <time>2024-03-22T09:13:00Z</time>
      </trkpt>
      <trkpt lat="46.73655" lon="-1.9672">
        <ele>8.4</ele>
        <time>2024-03-22T09:13:07Z</time>
      </trkpt>
      <trkpt lat="46.73652" lon="-1.96735">
        <ele>8.4</ele>
        <time>2024-03-22T09:13:14Z</time>
      </trkpt>
      <trkpt lat="46.73648" lon="-1.96748">
        <ele>8.4</ele>
        <time>2024-03-22T09:13:21Z</time>
      </trkpt>
      <trkpt lat="46.73646" lon="-1.96762">
        <ele>8.4</ele>
        <time>2024-03-22T09:13:28Z</time>
      </trkpt>
      <trkpt lat="46.73641" lon="-1.96776">
        <ele>8.3</ele>
        <time>2024-03-22T09:13:36Z</time>
      </trkpt>
      <trkpt lat="46.73636" lon="-1.96789">
        <ele>8.2</ele>
        <time>2024-03-22T09:13:43Z</time>
      </trkpt>
      <trkpt lat="46.73631" lon="-1.96801">
        <ele>8.1</ele>
        <time>2024-03-22T09:13:49Z</time>
      </trkpt>
      <trkpt lat="46.73627" lon="-1.96814">
        <ele>8.3</ele>
        <time>2024-03-22T09:13:56Z</time>
      </trkpt>
      <trkpt lat="46.73624" lon="-1.96828">
        <ele>8.4</ele>
        <time>2024-03-22T09:14:03Z</time>
      </trkpt>
      <trkpt lat="46.73622" lon="-1.96842">
        <ele>8.4</ele>
        <time>2024-03-22T09:14:10Z</time>
      </trkpt>
      <trkpt lat="46.7362" lon="-1.96856">
        <ele>8.4</ele>
        <time>2024-03-22T09:14:17Z</time>
      </trkpt>
      <trkpt lat="46.73618" lon="-1.9687">
        <ele>8.4</ele>
        <time>2024-03-22T09:14:24Z</time>
      </trkpt>
      <trkpt lat="46.73615" lon="-1.96883">
        <ele>8.5</ele>
        <time>2024-03-22T09:14:30Z</time>
      </trkpt>
      <trkpt lat="46.7361" lon="-1.96896">
        <ele>8.5</ele>
        <time>2024-03-22T09:14:38Z</time>
      </trkpt>
      <trkpt lat="46.73605" lon="-1.96909">
        <ele>8.5</ele>
        <time>2024-03-22T09:14:46Z</time>
      </trkpt>
      <trkpt lat="46.736" lon="-1.96923">
        <ele>8.5</ele>
        <time>2024-03-22T09:14:54Z</time>
      </trkpt>
      <trkpt lat="46.73594" lon="-1.96933">
        <ele>8.8</ele>
        <time>2024-03-22T09:15:00Z</time>
      </trkpt>
      <trkpt lat="46.73588" lon="-1.96943">
        <ele>8.7</ele>
        <time>2024-03-22T09:15:09Z</time>
      </trkpt>
      <trkpt lat="46.73583" lon="-1.96954">
        <ele>8.7</ele>
        <time>2024-03-22T09:15:14Z</time>
      </trkpt>
      <trkpt lat="46.73577" lon="-1.96968">
        <ele>8.8</ele>
        <time>2024-03-22T09:15:22Z</time>
      </trkpt>
      <trkpt lat="46.73572" lon="-1.9698">
        <ele>8.7</ele>
        <time>2024-03-22T09:15:29Z</time>
      </trkpt>
      <trkpt lat="46.73566" lon="-1.96992">
        <ele>8.6</ele>
        <time>2024-03-22T09:15:36Z</time>
      </trkpt>
      <trkpt lat="46.73562" lon="-1.97004">
        <ele>8.5</ele>
        <time>2024-03-22T09:15:42Z</time>
      </trkpt>
      <trkpt lat="46.73556" lon="-1.97016">
        <ele>8.5</ele>
        <time>2024-03-22T09:15:48Z</time>
      </trkpt>
      <trkpt lat="46.73553" lon="-1.9703">
        <ele>8.5</ele>
        <time>2024-03-22T09:15:55Z</time>
      </trkpt>
      <trkpt lat="46.73548" lon="-1.97043">
        <ele>8.5</ele>
        <time>2024-03-22T09:16:01Z</time>
      </trkpt>
      <trkpt lat="46.73545" lon="-1.97055">
        <ele>8.5</ele>
        <time>2024-03-22T09:16:08Z</time>
      </trkpt>
      <trkpt lat="46.73542" lon="-1.97069">
        <ele>8.5</ele>
        <time>2024-03-22T09:16:14Z</time>
      </trkpt>
      <trkpt lat="46.73546" lon="-1.97083">
        <ele>8.4</ele>
        <time>2024-03-22T09:16:21Z</time>
      </trkpt>
      <trkpt lat="46.7355" lon="-1.97095">
        <ele>8.4</ele>
        <time>2024-03-22T09:16:28Z</time>
      </trkpt>
      <trkpt lat="46.73554" lon="-1.97109">
        <ele>8.4</ele>
        <time>2024-03-22T09:16:34Z</time>
      </trkpt>
      <trkpt lat="46.73558" lon="-1.97121">
        <ele>8.4</ele>
        <time>2024-03-22T09:16:42Z</time>
      </trkpt>
      <trkpt lat="46.73565" lon="-1.97131">
        <ele>8.3</ele>
        <time>2024-03-22T09:16:49Z</time>
      </trkpt>
      <trkpt lat="46.7357" lon="-1.97144">
        <ele>8.3</ele>
        <time>2024-03-22T09:16:55Z</time>
      </trkpt>
      <trkpt lat="46.73575" lon="-1.97155">
        <ele>8.4</ele>
        <time>2024-03-22T09:17:01Z</time>
      </trkpt>
      <trkpt lat="46.7358" lon="-1.97168">
        <ele>8.4</ele>
        <time>2024-03-22T09:17:07Z</time>
      </trkpt>
      <trkpt lat="46.73586" lon="-1.97179">
        <ele>8.4</ele>
        <time>2024-03-22T09:17:13Z</time>
      </trkpt>
      <trkpt lat="46.73591" lon="-1.97191">
        <ele>8.4</ele>
        <time>2024-03-22T09:17:20Z</time>
      </trkpt>
      <trkpt lat="46.73594" lon="-1.97204">
        <ele>8.4</ele>
        <time>2024-03-22T09:17:27Z</time>
      </trkpt>
      <trkpt lat="46.73598" lon="-1.97216">
        <ele>8.5</ele>
        <time>2024-03-22T09:17:34Z</time>
      </trkpt>
      <trkpt lat="46.73602" lon="-1.9723">
        <ele>8.5</ele>
        <time>2024-03-22T09:17:40Z</time>
      </trkpt>
      <trkpt lat="46.73605" lon="-1.97243">
        <ele>8.5</ele>
        <time>2024-03-22T09:17:46Z</time>
      </trkpt>
      <trkpt lat="46.73608" lon="-1.97257">
        <ele>8.5</ele>
        <time>2024-03-22T09:17:54Z</time>
      </trkpt>
      <trkpt lat="46.73612" lon="-1.97271">
        <ele>8.5</ele>
        <time>2024-03-22T09:18:01Z</time>
      </trkpt>
      <trkpt lat="46.73614" lon="-1.97287">
        <ele>8.5</ele>
        <time>2024-03-22T09:18:08Z</time>
      </trkpt>
      <trkpt lat="46.73612" lon="-1.97302">
        <ele>8.5</ele>
        <time>2024-03-22T09:18:14Z</time>
      </trkpt>
      <trkpt lat="46.73612" lon="-1.97316">
        <ele>8.5</ele>
        <time>2024-03-22T09:18:21Z</time>
      </trkpt>
      <trkpt lat="46.73613" lon="-1.9733">
        <ele>8.6</ele>
        <time>2024-03-22T09:18:27Z</time>
      </trkpt>
      <trkpt lat="46.73614" lon="-1.97346">
        <ele>8.6</ele>
        <time>2024-03-22T09:18:33Z</time>
      </trkpt>
      <trkpt lat="46.73618" lon="-1.9736">
        <ele>8.6</ele>
        <time>2024-03-22T09:18:40Z</time>
      </trkpt>
      <trkpt lat="46.73624" lon="-1.97372">
        <ele>8.7</ele>
        <time>2024-03-22T09:18:48Z</time>
      </trkpt>
      <trkpt lat="46.73627" lon="-1.97385">
        <ele>8.7</ele>
        <time>2024-03-22T09:18:54Z</time>
      </trkpt>
      <trkpt lat="46.73629" lon="-1.97399">
        <ele>8.7</ele>
        <time>2024-03-22T09:19:01Z</time>
      </trkpt>
      <trkpt lat="46.73631" lon="-1.97413">
        <ele>8.8</ele>
        <time>2024-03-22T09:19:08Z</time>
      </trkpt>
      <trkpt lat="46.73629" lon="-1.97428">
        <ele>8.8</ele>
        <time>2024-03-22T09:19:13Z</time>
      </trkpt>
      <trkpt lat="46.73626" lon="-1.97441">
        <ele>8.9</ele>
        <time>2024-03-22T09:19:18Z</time>
      </trkpt>
      <trkpt lat="46.73623" lon="-1.97452">
        <ele>8.8</ele>
        <time>2024-03-22T09:19:24Z</time>
      </trkpt>
      <trkpt lat="46.73616" lon="-1.97464">
        <ele>8.9</ele>
        <time>2024-03-22T09:19:31Z</time>
      </trkpt>
      <trkpt lat="46.73611" lon="-1.97475">
        <ele>9</ele>
        <time>2024-03-22T09:19:39Z</time>
      </trkpt>
      <trkpt lat="46.73605" lon="-1.97485">
        <ele>9.4</ele>
        <time>2024-03-22T09:19:49Z</time>
      </trkpt>
      <trkpt lat="46.73599" lon="-1.97496">
        <ele>10</ele>
        <time>2024-03-22T09:20:00Z</time>
      </trkpt>
      <trkpt lat="46.73591" lon="-1.97503">
        <ele>10.3</ele>
        <time>2024-03-22T09:20:09Z</time>
      </trkpt>
      <trkpt lat="46.73591" lon="-1.97516">
        <ele>10.8</ele>
        <time>2024-03-22T09:20:24Z</time>
      </trkpt>
      <trkpt lat="46.73585" lon="-1.97528">
        <ele>11</ele>
        <time>2024-03-22T09:20:32Z</time>
      </trkpt>
      <trkpt lat="46.73576" lon="-1.97525">
        <ele>11.2</ele>
        <time>2024-03-22T09:20:40Z</time>
      </trkpt>
      <trkpt lat="46.73568" lon="-1.97519">
        <ele>11.3</ele>
        <time>2024-03-22T09:20:48Z</time>
      </trkpt>
      <trkpt lat="46.7356" lon="-1.97509">
        <ele>11.1</ele>
        <time>2024-03-22T09:20:56Z</time>
      </trkpt>
      <trkpt lat="46.73552" lon="-1.97502">
        <ele>11</ele>
        <time>2024-03-22T09:21:04Z</time>
      </trkpt>
      <trkpt lat="46.73543" lon="-1.97496">
        <ele>11</ele>
        <time>2024-03-22T09:21:11Z</time>
      </trkpt>
      <trkpt lat="46.73535" lon="-1.97488">
        <ele>10.9</ele>
        <time>2024-03-22T09:21:19Z</time>
      </trkpt>
      <trkpt lat="46.73526" lon="-1.9748">
        <ele>10.9</ele>
        <time>2024-03-22T09:21:28Z</time>
      </trkpt>
      <trkpt lat="46.73518" lon="-1.97473">
        <ele>10.8</ele>
        <time>2024-03-22T09:21:37Z</time>
      </trkpt>
      <trkpt lat="46.73509" lon="-1.97467">
        <ele>10.9</ele>
        <time>2024-03-22T09:21:47Z</time>
      </trkpt>
      <trkpt lat="46.73501" lon="-1.97458">
        <ele>11</ele>
        <time>2024-03-22T09:21:55Z</time>
      </trkpt>
      <trkpt lat="46.73493" lon="-1.97449">
        <ele>11.1</ele>
        <time>2024-03-22T09:22:02Z</time>
      </trkpt>
      <trkpt lat="46.73486" lon="-1.97441">
        <ele>11.1</ele>
        <time>2024-03-22T09:22:10Z</time>
      </trkpt>
      <trkpt lat="46.73477" lon="-1.97435">
        <ele>11.2</ele>
        <time>2024-03-22T09:22:18Z</time>
      </trkpt>
      <trkpt lat="46.73469" lon="-1.97428">
        <ele>11.2</ele>
        <time>2024-03-22T09:22:26Z</time>
      </trkpt>
      <trkpt lat="46.73461" lon="-1.97419">
        <ele>11.3</ele>
        <time>2024-03-22T09:22:33Z</time>
      </trkpt>
      <trkpt lat="46.73452" lon="-1.97411">
        <ele>11.4</ele>
        <time>2024-03-22T09:22:40Z</time>
      </trkpt>
      <trkpt lat="46.73444" lon="-1.97404">
        <ele>11.3</ele>
        <time>2024-03-22T09:22:47Z</time>
      </trkpt>
      <trkpt lat="46.73436" lon="-1.97397">
        <ele>11.3</ele>
        <time>2024-03-22T09:22:55Z</time>
      </trkpt>
      <trkpt lat="46.73427" lon="-1.97389">
        <ele>11.3</ele>
        <time>2024-03-22T09:23:02Z</time>
      </trkpt>
      <trkpt lat="46.73419" lon="-1.97384">
        <ele>11.3</ele>
        <time>2024-03-22T09:23:09Z</time>
      </trkpt>
      <trkpt lat="46.73411" lon="-1.97378">
        <ele>11.5</ele>
        <time>2024-03-22T09:23:16Z</time>
      </trkpt>
      <trkpt lat="46.73401" lon="-1.97374">
        <ele>11.7</ele>
        <time>2024-03-22T09:23:23Z</time>
      </trkpt>
      <trkpt lat="46.73392" lon="-1.97368">
        <ele>11.8</ele>
        <time>2024-03-22T09:23:30Z</time>
      </trkpt>
      <trkpt lat="46.73383" lon="-1.97364">
        <ele>12</ele>
        <time>2024-03-22T09:23:36Z</time>
      </trkpt>
      <trkpt lat="46.73375" lon="-1.97358">
        <ele>12.3</ele>
        <time>2024-03-22T09:23:43Z</time>
      </trkpt>
      <trkpt lat="46.73365" lon="-1.97355">
        <ele>12.4</ele>
        <time>2024-03-22T09:23:50Z</time>
      </trkpt>
      <trkpt lat="46.73356" lon="-1.9735">
        <ele>12.5</ele>
        <time>2024-03-22T09:23:58Z</time>
      </trkpt>
      <trkpt lat="46.73347" lon="-1.97346">
        <ele>12.5</ele>
        <time>2024-03-22T09:24:04Z</time>
      </trkpt>
      <trkpt lat="46.73338" lon="-1.9734">
        <ele>12.7</ele>
        <time>2024-03-22T09:24:11Z</time>
      </trkpt>
      <trkpt lat="46.73328" lon="-1.97334">
        <ele>12.8</ele>
        <time>2024-03-22T09:24:18Z</time>
      </trkpt>
      <trkpt lat="46.73321" lon="-1.97326">
        <ele>13</ele>
        <time>2024-03-22T09:24:28Z</time>
      </trkpt>
      <trkpt lat="46.73311" lon="-1.97321">
        <ele>13.1</ele>
        <time>2024-03-22T09:24:35Z</time>
      </trkpt>
      <trkpt lat="46.73302" lon="-1.9732">
        <ele>13.1</ele>
        <time>2024-03-22T09:24:41Z</time>
      </trkpt>
      <trkpt lat="46.73293" lon="-1.97314">
        <ele>13.2</ele>
        <time>2024-03-22T09:24:48Z</time>
      </trkpt>
      <trkpt lat="46.73284" lon="-1.97311">
        <ele>13.3</ele>
        <time>2024-03-22T09:24:55Z</time>
      </trkpt>
      <trkpt lat="46.73274" lon="-1.97306">
        <ele>13.4</ele>
        <time>2024-03-22T09:25:03Z</time>
      </trkpt>
      <trkpt lat="46.73265" lon="-1.97301">
        <ele>13.4</ele>
        <time>2024-03-22T09:25:09Z</time>
      </trkpt>
      <trkpt lat="46.73256" lon="-1.97299">
        <ele>13.4</ele>
        <time>2024-03-22T09:25:15Z</time>
      </trkpt>
      <trkpt lat="46.73248" lon="-1.97292">
        <ele>13.4</ele>
        <time>2024-03-22T09:25:22Z</time>
      </trkpt>
      <trkpt lat="46.7324" lon="-1.97285">
        <ele>13.4</ele>
        <time>2024-03-22T09:25:29Z</time>
      </trkpt>
      <trkpt lat="46.73231" lon="-1.97278">
        <ele>13.3</ele>
        <time>2024-03-22T09:25:36Z</time>
      </trkpt>
      <trkpt lat="46.73223" lon="-1.97269">
        <ele>13</ele>
        <time>2024-03-22T09:25:44Z</time>
      </trkpt>
      <trkpt lat="46.73214" lon="-1.97263">
        <ele>12.7</ele>
        <time>2024-03-22T09:25:51Z</time>
      </trkpt>
      <trkpt lat="46.73206" lon="-1.97254">
        <ele>12.6</ele>
        <time>2024-03-22T09:25:58Z</time>
      </trkpt>
      <trkpt lat="46.73199" lon="-1.97244">
        <ele>12.6</ele>
        <time>2024-03-22T09:26:06Z</time>
      </trkpt>
      <trkpt lat="46.73193" lon="-1.97233">
        <ele>12.7</ele>
        <time>2024-03-22T09:26:14Z</time>
      </trkpt>
      <trkpt lat="46.73187" lon="-1.97222">
        <ele>12.9</ele>
        <time>2024-03-22T09:26:41Z</time>
      </trkpt>
      <trkpt lat="46.7318" lon="-1.97213">
        <ele>12.9</ele>
        <time>2024-03-22T09:26:49Z</time>
      </trkpt>
      <trkpt lat="46.73173" lon="-1.97203">
        <ele>12.9</ele>
        <time>2024-03-22T09:26:56Z</time>
      </trkpt>
      <trkpt lat="46.73166" lon="-1.97194">
        <ele>12.9</ele>
        <time>2024-03-22T09:27:03Z</time>
      </trkpt>
      <trkpt lat="46.73161" lon="-1.97204">
        <ele>14.6</ele>
        <time>2024-03-22T09:27:59Z</time>
      </trkpt>
      <trkpt lat="46.73163" lon="-1.97217">
        <ele>15.4</ele>
        <time>2024-03-22T09:28:08Z</time>
      </trkpt>
      <trkpt lat="46.73163" lon="-1.97231">
        <ele>16.2</ele>
        <time>2024-03-22T09:28:16Z</time>
      </trkpt>
      <trkpt lat="46.73165" lon="-1.97246">
        <ele>17.1</ele>
        <time>2024-03-22T09:28:25Z</time>
      </trkpt>
      <trkpt lat="46.73166" lon="-1.9726">
        <ele>17.9</ele>
        <time>2024-03-22T09:28:33Z</time>
      </trkpt>
      <trkpt lat="46.73167" lon="-1.97275">
        <ele>18.6</ele>
        <time>2024-03-22T09:28:40Z</time>
      </trkpt>
      <trkpt lat="46.73169" lon="-1.97288">
        <ele>19</ele>
        <time>2024-03-22T09:28:47Z</time>
      </trkpt>
      <trkpt lat="46.73173" lon="-1.97302">
        <ele>19.4</ele>
        <time>2024-03-22T09:28:55Z</time>
      </trkpt>
      <trkpt lat="46.73175" lon="-1.97315">
        <ele>19.5</ele>
        <time>2024-03-22T09:29:03Z</time>
      </trkpt>
      <trkpt lat="46.73177" lon="-1.97329">
        <ele>19.6</ele>
        <time>2024-03-22T09:29:11Z</time>
      </trkpt>
      <trkpt lat="46.7318" lon="-1.97342">
        <ele>19.6</ele>
        <time>2024-03-22T09:29:21Z</time>
      </trkpt>
      <trkpt lat="46.73185" lon="-1.97356">
        <ele>19.5</ele>
        <time>2024-03-22T09:29:30Z</time>
      </trkpt>
      <trkpt lat="46.73186" lon="-1.9737">
        <ele>19.5</ele>
        <time>2024-03-22T09:29:39Z</time>
      </trkpt>
      <trkpt lat="46.73187" lon="-1.97385">
        <ele>19.4</ele>
        <time>2024-03-22T09:29:47Z</time>
      </trkpt>
      <trkpt lat="46.7319" lon="-1.97398">
        <ele>19.5</ele>
        <time>2024-03-22T09:29:55Z</time>
      </trkpt>
      <trkpt lat="46.73192" lon="-1.97411">
        <ele>19.5</ele>
        <time>2024-03-22T09:30:01Z</time>
      </trkpt>
      <trkpt lat="46.73197" lon="-1.97423">
        <ele>19.5</ele>
        <time>2024-03-22T09:30:09Z</time>
      </trkpt>
      <trkpt lat="46.732" lon="-1.97435">
        <ele>19.5</ele>
        <time>2024-03-22T09:30:16Z</time>
      </trkpt>
      <trkpt lat="46.73202" lon="-1.97448">
        <ele>19.4</ele>
        <time>2024-03-22T09:30:22Z</time>
      </trkpt>
      <trkpt lat="46.73202" lon="-1.97462">
        <ele>19.2</ele>
        <time>2024-03-22T09:30:30Z</time>
      </trkpt>
      <trkpt lat="46.732" lon="-1.97475">
        <ele>19</ele>
        <time>2024-03-22T09:30:39Z</time>
      </trkpt>
      <trkpt lat="46.73193" lon="-1.97485">
        <ele>18.3</ele>
        <time>2024-03-22T09:30:58Z</time>
      </trkpt>
      <trkpt lat="46.73184" lon="-1.97483">
        <ele>18.1</ele>
        <time>2024-03-22T09:35:39Z</time>
      </trkpt>
      <trkpt lat="46.73192" lon="-1.97491">
        <ele>18.6</ele>
        <time>2024-03-22T09:36:33Z</time>
      </trkpt>
      <trkpt lat="46.732" lon="-1.97486">
        <ele>18.9</ele>
        <time>2024-03-22T09:36:44Z</time>
      </trkpt>
      <trkpt lat="46.73208" lon="-1.97495">
        <ele>19.4</ele>
        <time>2024-03-22T09:36:57Z</time>
      </trkpt>
      <trkpt lat="46.73212" lon="-1.97508">
        <ele>19.8</ele>
        <time>2024-03-22T09:37:07Z</time>
      </trkpt>
      <trkpt lat="46.73216" lon="-1.97521">
        <ele>19.8</ele>
        <time>2024-03-22T09:37:18Z</time>
      </trkpt>
      <trkpt lat="46.73221" lon="-1.97533">
        <ele>19.5</ele>
        <time>2024-03-22T09:37:42Z</time>
      </trkpt>
      <trkpt lat="46.73226" lon="-1.97544">
        <ele>19.3</ele>
        <time>2024-03-22T09:37:52Z</time>
      </trkpt>
      <trkpt lat="46.7323" lon="-1.97556">
        <ele>18.9</ele>
        <time>2024-03-22T09:38:14Z</time>
      </trkpt>
      <trkpt lat="46.73232" lon="-1.9757">
        <ele>18.6</ele>
        <time>2024-03-22T09:38:26Z</time>
      </trkpt>
      <trkpt lat="46.73234" lon="-1.97583">
        <ele>18.1</ele>
        <time>2024-03-22T09:38:34Z</time>
      </trkpt>
      <trkpt lat="46.73238" lon="-1.97595">
        <ele>17.6</ele>
        <time>2024-03-22T09:38:41Z</time>
      </trkpt>
      <trkpt lat="46.73237" lon="-1.97609">
        <ele>17</ele>
        <time>2024-03-22T09:38:50Z</time>
      </trkpt>
      <trkpt lat="46.73237" lon="-1.97624">
        <ele>16.9</ele>
        <time>2024-03-22T09:39:01Z</time>
      </trkpt>
      <trkpt lat="46.73235" lon="-1.97638">
        <ele>17.7</ele>
        <time>2024-03-22T09:39:10Z</time>
      </trkpt>
      <trkpt lat="46.73229" lon="-1.97649">
        <ele>18.7</ele>
        <time>2024-03-22T09:39:18Z</time>
      </trkpt>
      <trkpt lat="46.73224" lon="-1.97661">
        <ele>20.1</ele>
        <time>2024-03-22T09:39:28Z</time>
      </trkpt>
      <trkpt lat="46.73219" lon="-1.97672">
        <ele>22.3</ele>
        <time>2024-03-22T09:39:44Z</time>
      </trkpt>
      <trkpt lat="46.73219" lon="-1.97686">
        <ele>23</ele>
        <time>2024-03-22T09:39:58Z</time>
      </trkpt>
      <trkpt lat="46.73213" lon="-1.97698">
        <ele>23.9</ele>
        <time>2024-03-22T09:40:11Z</time>
      </trkpt>
      <trkpt lat="46.73216" lon="-1.97711">
        <ele>25.4</ele>
        <time>2024-03-22T09:40:19Z</time>
      </trkpt>
      <trkpt lat="46.73218" lon="-1.97724">
        <ele>28.2</ele>
        <time>2024-03-22T09:40:32Z</time>
      </trkpt>
      <trkpt lat="46.73222" lon="-1.97736">
        <ele>29.5</ele>
        <time>2024-03-22T09:40:45Z</time>
      </trkpt>
      <trkpt lat="46.73229" lon="-1.97744">
        <ele>29.4</ele>
        <time>2024-03-22T09:40:55Z</time>
      </trkpt>
      <trkpt lat="46.73238" lon="-1.97752">
        <ele>29.6</ele>
        <time>2024-03-22T09:41:04Z</time>
      </trkpt>
      <trkpt lat="46.73246" lon="-1.97759">
        <ele>30.1</ele>
        <time>2024-03-22T09:41:12Z</time>
      </trkpt>
      <trkpt lat="46.73252" lon="-1.97771">
        <ele>30.3</ele>
        <time>2024-03-22T09:41:21Z</time>
      </trkpt>
      <trkpt lat="46.73255" lon="-1.97784">
        <ele>29.6</ele>
        <time>2024-03-22T09:41:30Z</time>
      </trkpt>
      <trkpt lat="46.73257" lon="-1.97798">
        <ele>28.3</ele>
        <time>2024-03-22T09:41:39Z</time>
      </trkpt>
      <trkpt lat="46.73259" lon="-1.97813">
        <ele>27.2</ele>
        <time>2024-03-22T09:41:49Z</time>
      </trkpt>
      <trkpt lat="46.73262" lon="-1.97825">
        <ele>26.6</ele>
        <time>2024-03-22T09:41:58Z</time>
      </trkpt>
      <trkpt lat="46.73268" lon="-1.97838">
        <ele>25.3</ele>
        <time>2024-03-22T09:42:07Z</time>
      </trkpt>
      <trkpt lat="46.73269" lon="-1.97852">
        <ele>24.6</ele>
        <time>2024-03-22T09:42:16Z</time>
      </trkpt>
      <trkpt lat="46.73268" lon="-1.97866">
        <ele>24.5</ele>
        <time>2024-03-22T09:42:25Z</time>
      </trkpt>
      <trkpt lat="46.73271" lon="-1.97881">
        <ele>24.7</ele>
        <time>2024-03-22T09:42:33Z</time>
      </trkpt>
      <trkpt lat="46.73275" lon="-1.97895">
        <ele>24.3</ele>
        <time>2024-03-22T09:42:44Z</time>
      </trkpt>
      <trkpt lat="46.73276" lon="-1.97909">
        <ele>23.7</ele>
        <time>2024-03-22T09:42:53Z</time>
      </trkpt>
      <trkpt lat="46.73273" lon="-1.97922">
        <ele>22.8</ele>
        <time>2024-03-22T09:43:02Z</time>
      </trkpt>
      <trkpt lat="46.73273" lon="-1.97936">
        <ele>22.4</ele>
        <time>2024-03-22T09:43:08Z</time>
      </trkpt>
      <trkpt lat="46.73274" lon="-1.97949">
        <ele>22.1</ele>
        <time>2024-03-22T09:43:40Z</time>
      </trkpt>
      <trkpt lat="46.73279" lon="-1.97962">
        <ele>22.4</ele>
        <time>2024-03-22T09:43:49Z</time>
      </trkpt>
      <trkpt lat="46.73283" lon="-1.97974">
        <ele>22.4</ele>
        <time>2024-03-22T09:43:57Z</time>
      </trkpt>
      <trkpt lat="46.73286" lon="-1.97987">
        <ele>22</ele>
        <time>2024-03-22T09:44:04Z</time>
      </trkpt>
      <trkpt lat="46.73292" lon="-1.97999">
        <ele>21.9</ele>
        <time>2024-03-22T09:44:11Z</time>
      </trkpt>
      <trkpt lat="46.73297" lon="-1.98011">
        <ele>21.6</ele>
        <time>2024-03-22T09:44:21Z</time>
      </trkpt>
      <trkpt lat="46.73303" lon="-1.98022">
        <ele>21.3</ele>
        <time>2024-03-22T09:44:29Z</time>
      </trkpt>
      <trkpt lat="46.73311" lon="-1.98031">
        <ele>21.4</ele>
        <time>2024-03-22T09:44:42Z</time>
      </trkpt>
      <trkpt lat="46.73314" lon="-1.98044">
        <ele>21.3</ele>
        <time>2024-03-22T09:44:51Z</time>
      </trkpt>
      <trkpt lat="46.73313" lon="-1.98058">
        <ele>21.3</ele>
        <time>2024-03-22T09:45:01Z</time>
      </trkpt>
      <trkpt lat="46.73316" lon="-1.98071">
        <ele>22</ele>
        <time>2024-03-22T09:45:10Z</time>
      </trkpt>
      <trkpt lat="46.7332" lon="-1.98085">
        <ele>21.3</ele>
        <time>2024-03-22T09:45:18Z</time>
      </trkpt>
      <trkpt lat="46.73324" lon="-1.98098">
        <ele>20.1</ele>
        <time>2024-03-22T09:45:26Z</time>
      </trkpt>
      <trkpt lat="46.73325" lon="-1.98113">
        <ele>19.2</ele>
        <time>2024-03-22T09:45:33Z</time>
      </trkpt>
      <trkpt lat="46.73324" lon="-1.98127">
        <ele>18.6</ele>
        <time>2024-03-22T09:45:39Z</time>
      </trkpt>
      <trkpt lat="46.73325" lon="-1.9814">
        <ele>17.5</ele>
        <time>2024-03-22T09:45:47Z</time>
      </trkpt>
      <trkpt lat="46.73323" lon="-1.98155">
        <ele>16.6</ele>
        <time>2024-03-22T09:45:55Z</time>
      </trkpt>
      <trkpt lat="46.73316" lon="-1.98164">
        <ele>16.3</ele>
        <time>2024-03-22T09:46:01Z</time>
      </trkpt>
      <trkpt lat="46.73311" lon="-1.98175">
        <ele>15.9</ele>
        <time>2024-03-22T09:46:08Z</time>
      </trkpt>
      <trkpt lat="46.73308" lon="-1.98189">
        <ele>16.1</ele>
        <time>2024-03-22T09:46:18Z</time>
      </trkpt>
      <trkpt lat="46.73306" lon="-1.98202">
        <ele>16.1</ele>
        <time>2024-03-22T09:46:25Z</time>
      </trkpt>
      <trkpt lat="46.73306" lon="-1.98215">
        <ele>16.2</ele>
        <time>2024-03-22T09:46:32Z</time>
      </trkpt>
      <trkpt lat="46.73311" lon="-1.98226">
        <ele>15.6</ele>
        <time>2024-03-22T09:46:45Z</time>
      </trkpt>
      <trkpt lat="46.73321" lon="-1.98232">
        <ele>15</ele>
        <time>2024-03-22T09:46:53Z</time>
      </trkpt>
      <trkpt lat="46.73329" lon="-1.98237">
        <ele>14.2</ele>
        <time>2024-03-22T09:47:02Z</time>
      </trkpt>
      <trkpt lat="46.73339" lon="-1.98242">
        <ele>13.5</ele>
        <time>2024-03-22T09:47:09Z</time>
      </trkpt>
      <trkpt lat="46.73348" lon="-1.98246">
        <ele>13</ele>
        <time>2024-03-22T09:47:17Z</time>
      </trkpt>
      <trkpt lat="46.73357" lon="-1.98249">
        <ele>12.4</ele>
        <time>2024-03-22T09:47:25Z</time>
      </trkpt>
      <trkpt lat="46.73366" lon="-1.98252">
        <ele>12.1</ele>
        <time>2024-03-22T09:47:31Z</time>
      </trkpt>
      <trkpt lat="46.73376" lon="-1.98254">
        <ele>11.9</ele>
        <time>2024-03-22T09:47:38Z</time>
      </trkpt>
      <trkpt lat="46.73386" lon="-1.98257">
        <ele>11.9</ele>
        <time>2024-03-22T09:47:45Z</time>
      </trkpt>
      <trkpt lat="46.73394" lon="-1.98264">
        <ele>12.2</ele>
        <time>2024-03-22T09:47:52Z</time>
      </trkpt>
      <trkpt lat="46.73403" lon="-1.9827">
        <ele>12.4</ele>
        <time>2024-03-22T09:48:00Z</time>
      </trkpt>
      <trkpt lat="46.73411" lon="-1.98277">
        <ele>12.1</ele>
        <time>2024-03-22T09:48:08Z</time>
      </trkpt>
      <trkpt lat="46.7342" lon="-1.98282">
        <ele>11.4</ele>
        <time>2024-03-22T09:48:15Z</time>
      </trkpt>
      <trkpt lat="46.7343" lon="-1.98286">
        <ele>10.8</ele>
        <time>2024-03-22T09:48:23Z</time>
      </trkpt>
      <trkpt lat="46.73439" lon="-1.98289">
        <ele>10.7</ele>
        <time>2024-03-22T09:48:30Z</time>
      </trkpt>
      <trkpt lat="46.73446" lon="-1.98298">
        <ele>10.5</ele>
        <time>2024-03-22T09:48:37Z</time>
      </trkpt>
      <trkpt lat="46.73454" lon="-1.98307">
        <ele>10.2</ele>
        <time>2024-03-22T09:48:45Z</time>
      </trkpt>
      <trkpt lat="46.73462" lon="-1.98316">
        <ele>10</ele>
        <time>2024-03-22T09:48:53Z</time>
      </trkpt>
      <trkpt lat="46.7347" lon="-1.98323">
        <ele>9.9</ele>
        <time>2024-03-22T09:49:01Z</time>
      </trkpt>
      <trkpt lat="46.7348" lon="-1.98328">
        <ele>10.2</ele>
        <time>2024-03-22T09:49:09Z</time>
      </trkpt>
      <trkpt lat="46.73489" lon="-1.98336">
        <ele>10.5</ele>
        <time>2024-03-22T09:49:16Z</time>
      </trkpt>
      <trkpt lat="46.73496" lon="-1.98344">
        <ele>10.7</ele>
        <time>2024-03-22T09:49:23Z</time>
      </trkpt>
      <trkpt lat="46.73504" lon="-1.98353">
        <ele>10.7</ele>
        <time>2024-03-22T09:49:31Z</time>
      </trkpt>
      <trkpt lat="46.73511" lon="-1.98363">
        <ele>10.7</ele>
        <time>2024-03-22T09:49:39Z</time>
      </trkpt>
      <trkpt lat="46.73517" lon="-1.98375">
        <ele>10.6</ele>
        <time>2024-03-22T09:49:47Z</time>
      </trkpt>
      <trkpt lat="46.73524" lon="-1.98384">
        <ele>11.3</ele>
        <time>2024-03-22T09:49:55Z</time>
      </trkpt>
      <trkpt lat="46.7353" lon="-1.98396">
        <ele>12.7</ele>
        <time>2024-03-22T09:50:04Z</time>
      </trkpt>
      <trkpt lat="46.73536" lon="-1.98407">
        <ele>14</ele>
        <time>2024-03-22T09:50:13Z</time>
      </trkpt>
      <trkpt lat="46.7354" lon="-1.9842">
        <ele>12.8</ele>
        <time>2024-03-22T09:50:23Z</time>
      </trkpt>
      <trkpt lat="46.73543" lon="-1.98434">
        <ele>12</ele>
        <time>2024-03-22T09:50:32Z</time>
      </trkpt>
      <trkpt lat="46.73547" lon="-1.98448">
        <ele>11.4</ele>
        <time>2024-03-22T09:50:40Z</time>
      </trkpt>
      <trkpt lat="46.73552" lon="-1.98459">
        <ele>10.7</ele>
        <time>2024-03-22T09:50:47Z</time>
      </trkpt>
      <trkpt lat="46.73557" lon="-1.98471">
        <ele>10.6</ele>
        <time>2024-03-22T09:50:54Z</time>
      </trkpt>
      <trkpt lat="46.73561" lon="-1.98483">
        <ele>11.1</ele>
        <time>2024-03-22T09:51:01Z</time>
      </trkpt>
      <trkpt lat="46.73566" lon="-1.98494">
        <ele>11.4</ele>
        <time>2024-03-22T09:51:09Z</time>
      </trkpt>
      <trkpt lat="46.7356" lon="-1.98504">
        <ele>10.8</ele>
        <time>2024-03-22T09:51:18Z</time>
      </trkpt>
      <trkpt lat="46.73553" lon="-1.98513">
        <ele>11.1</ele>
        <time>2024-03-22T09:51:26Z</time>
      </trkpt>
      <trkpt lat="46.73547" lon="-1.98523">
        <ele>11.4</ele>
        <time>2024-03-22T09:51:35Z</time>
      </trkpt>
      <trkpt lat="46.73538" lon="-1.98521">
        <ele>11.5</ele>
        <time>2024-03-22T09:51:53Z</time>
      </trkpt>
      <trkpt lat="46.7353" lon="-1.98529">
        <ele>11.2</ele>
        <time>2024-03-22T09:52:06Z</time>
      </trkpt>
      <trkpt lat="46.73523" lon="-1.98537">
        <ele>10.9</ele>
        <time>2024-03-22T09:52:19Z</time>
      </trkpt>
      <trkpt lat="46.73515" lon="-1.98545">
        <ele>10.9</ele>
        <time>2024-03-22T09:52:26Z</time>
      </trkpt>
      <trkpt lat="46.73508" lon="-1.98554">
        <ele>10.9</ele>
        <time>2024-03-22T09:52:35Z</time>
      </trkpt>
      <trkpt lat="46.735" lon="-1.98563">
        <ele>10.9</ele>
        <time>2024-03-22T09:52:43Z</time>
      </trkpt>
      <trkpt lat="46.73492" lon="-1.98572">
        <ele>11.3</ele>
        <time>2024-03-22T09:52:56Z</time>
      </trkpt>
      <trkpt lat="46.73484" lon="-1.9858">
        <ele>11.3</ele>
        <time>2024-03-22T09:53:04Z</time>
      </trkpt>
      <trkpt lat="46.73477" lon="-1.98586">
        <ele>11.7</ele>
        <time>2024-03-22T09:53:14Z</time>
      </trkpt>
      <trkpt lat="46.73468" lon="-1.98591">
        <ele>12</ele>
        <time>2024-03-22T09:53:26Z</time>
      </trkpt>
      <trkpt lat="46.73458" lon="-1.98593">
        <ele>12</ele>
        <time>2024-03-22T09:53:34Z</time>
      </trkpt>
      <trkpt lat="46.73449" lon="-1.98595">
        <ele>12.2</ele>
        <time>2024-03-22T09:53:42Z</time>
      </trkpt>
      <trkpt lat="46.7344" lon="-1.98601">
        <ele>12.4</ele>
        <time>2024-03-22T09:53:52Z</time>
      </trkpt>
      <trkpt lat="46.73432" lon="-1.98609">
        <ele>12.3</ele>
        <time>2024-03-22T09:54:04Z</time>
      </trkpt>
      <trkpt lat="46.73425" lon="-1.98616">
        <ele>12.1</ele>
        <time>2024-03-22T09:54:21Z</time>
      </trkpt>
      <trkpt lat="46.73417" lon="-1.98624">
        <ele>11.5</ele>
        <time>2024-03-22T09:54:34Z</time>
      </trkpt>
      <trkpt lat="46.73411" lon="-1.98635">
        <ele>11.3</ele>
        <time>2024-03-22T09:54:46Z</time>
      </trkpt>
      <trkpt lat="46.73405" lon="-1.98646">
        <ele>11.7</ele>
        <time>2024-03-22T09:54:55Z</time>
      </trkpt>
      <trkpt lat="46.73399" lon="-1.98657">
        <ele>12.6</ele>
        <time>2024-03-22T09:55:04Z</time>
      </trkpt>
      <trkpt lat="46.734" lon="-1.98672">
        <ele>13.1</ele>
        <time>2024-03-22T09:55:11Z</time>
      </trkpt>
      <trkpt lat="46.73401" lon="-1.98686">
        <ele>13.3</ele>
        <time>2024-03-22T09:55:20Z</time>
      </trkpt>
      <trkpt lat="46.73399" lon="-1.98699">
        <ele>13.3</ele>
        <time>2024-03-22T09:55:33Z</time>
      </trkpt>
      <trkpt lat="46.73389" lon="-1.98704">
        <ele>13.6</ele>
        <time>2024-03-22T09:55:43Z</time>
      </trkpt>
      <trkpt lat="46.73395" lon="-1.98716">
        <ele>13.5</ele>
        <time>2024-03-22T09:56:01Z</time>
      </trkpt>
      <trkpt lat="46.73392" lon="-1.98703">
        <ele>13.3</ele>
        <time>2024-03-22T09:56:24Z</time>
      </trkpt>
      <trkpt lat="46.73383" lon="-1.98699">
        <ele>13.1</ele>
        <time>2024-03-22T09:56:42Z</time>
      </trkpt>
      <trkpt lat="46.7339" lon="-1.98708">
        <ele>12.7</ele>
        <time>2024-03-22T09:57:25Z</time>
      </trkpt>
      <trkpt lat="46.7338" lon="-1.98705">
        <ele>12.4</ele>
        <time>2024-03-22T09:57:39Z</time>
      </trkpt>
      <trkpt lat="46.73376" lon="-1.98693">
        <ele>11.8</ele>
        <time>2024-03-22T09:58:17Z</time>
      </trkpt>
      <trkpt lat="46.73367" lon="-1.98698">
        <ele>11.4</ele>
        <time>2024-03-22T09:58:47Z</time>
      </trkpt>
      <trkpt lat="46.73358" lon="-1.987">
        <ele>11</ele>
        <time>2024-03-22T09:59:05Z</time>
      </trkpt>
      <trkpt lat="46.73351" lon="-1.98708">
        <ele>10.7</ele>
        <time>2024-03-22T09:59:13Z</time>
      </trkpt>
      <trkpt lat="46.7336" lon="-1.98713">
        <ele>10.4</ele>
        <time>2024-03-22T09:59:24Z</time>
      </trkpt>
      <trkpt lat="46.73369" lon="-1.98711">
        <ele>10.2</ele>
        <time>2024-03-22T09:59:33Z</time>
      </trkpt>
      <trkpt lat="46.73376" lon="-1.9872">
        <ele>12.3</ele>
        <time>2024-03-22T09:59:54Z</time>
      </trkpt>
      <trkpt lat="46.73377" lon="-1.98734">
        <ele>15</ele>
        <time>2024-03-22T10:00:06Z</time>
      </trkpt>
      <trkpt lat="46.73377" lon="-1.98748">
        <ele>15.5</ele>
        <time>2024-03-22T10:00:15Z</time>
      </trkpt>
      <trkpt lat="46.73378" lon="-1.98762">
        <ele>15.5</ele>
        <time>2024-03-22T10:00:25Z</time>
      </trkpt>
      <trkpt lat="46.7338" lon="-1.98775">
        <ele>14.5</ele>
        <time>2024-03-22T10:00:34Z</time>
      </trkpt>
      <trkpt lat="46.73379" lon="-1.98789">
        <ele>13.4</ele>
        <time>2024-03-22T10:00:42Z</time>
      </trkpt>
      <trkpt lat="46.7338" lon="-1.98804">
        <ele>13.7</ele>
        <time>2024-03-22T10:00:54Z</time>
      </trkpt>
      <trkpt lat="46.73378" lon="-1.98817">
        <ele>11.5</ele>
        <time>2024-03-22T10:01:07Z</time>
      </trkpt>
      <trkpt lat="46.73379" lon="-1.98831">
        <ele>10.1</ele>
        <time>2024-03-22T10:01:16Z</time>
      </trkpt>
      <trkpt lat="46.73384" lon="-1.98841">
        <ele>9.7</ele>
        <time>2024-03-22T10:01:31Z</time>
      </trkpt>
      <trkpt lat="46.73378" lon="-1.98852">
        <ele>9.7</ele>
        <time>2024-03-22T10:01:43Z</time>
      </trkpt>
      <trkpt lat="46.73378" lon="-1.98867">
        <ele>10.3</ele>
        <time>2024-03-22T10:01:50Z</time>
      </trkpt>
      <trkpt lat="46.73381" lon="-1.9888">
        <ele>11.7</ele>
        <time>2024-03-22T10:01:57Z</time>
      </trkpt>
      <trkpt lat="46.73384" lon="-1.98894">
        <ele>12.8</ele>
        <time>2024-03-22T10:02:06Z</time>
      </trkpt>
      <trkpt lat="46.73388" lon="-1.98907">
        <ele>13.9</ele>
        <time>2024-03-22T10:02:15Z</time>
      </trkpt>
      <trkpt lat="46.73391" lon="-1.98921">
        <ele>15.4</ele>
        <time>2024-03-22T10:02:29Z</time>
      </trkpt>
      <trkpt lat="46.73396" lon="-1.98934">
        <ele>16.9</ele>
        <time>2024-03-22T10:02:40Z</time>
      </trkpt>
      <trkpt lat="46.73404" lon="-1.98941">
        <ele>18.9</ele>
        <time>2024-03-22T10:02:50Z</time>
      </trkpt>
      <trkpt lat="46.73413" lon="-1.98936">
        <ele>20.3</ele>
        <time>2024-03-22T10:03:02Z</time>
      </trkpt>
      <trkpt lat="46.7342" lon="-1.98927">
        <ele>19.6</ele>
        <time>2024-03-22T10:03:10Z</time>
      </trkpt>
      <trkpt lat="46.7343" lon="-1.98929">
        <ele>19.3</ele>
        <time>2024-03-22T10:03:19Z</time>
      </trkpt>
      <trkpt lat="46.7344" lon="-1.98928">
        <ele>19</ele>
        <time>2024-03-22T10:03:26Z</time>
      </trkpt>
      <trkpt lat="46.73448" lon="-1.98936">
        <ele>19.6</ele>
        <time>2024-03-22T10:03:35Z</time>
      </trkpt>
      <trkpt lat="46.73451" lon="-1.98948">
        <ele>19.9</ele>
        <time>2024-03-22T10:03:48Z</time>
      </trkpt>
      <trkpt lat="46.73458" lon="-1.98958">
        <ele>19.7</ele>
        <time>2024-03-22T10:04:03Z</time>
      </trkpt>
      <trkpt lat="46.73465" lon="-1.98966">
        <ele>18.1</ele>
        <time>2024-03-22T10:04:11Z</time>
      </trkpt>
      <trkpt lat="46.73471" lon="-1.98977">
        <ele>17.3</ele>
        <time>2024-03-22T10:04:18Z</time>
      </trkpt>
      <trkpt lat="46.73476" lon="-1.98989">
        <ele>16.3</ele>
        <time>2024-03-22T10:04:27Z</time>
      </trkpt>
      <trkpt lat="46.73484" lon="-1.98998">
        <ele>16</ele>
        <time>2024-03-22T10:04:35Z</time>
      </trkpt>
      <trkpt lat="46.73492" lon="-1.99003">
        <ele>15.6</ele>
        <time>2024-03-22T10:04:42Z</time>
      </trkpt>
      <trkpt lat="46.735" lon="-1.9901">
        <ele>15.5</ele>
        <time>2024-03-22T10:04:49Z</time>
      </trkpt>
      <trkpt lat="46.73509" lon="-1.99017">
        <ele>15.1</ele>
        <time>2024-03-22T10:04:58Z</time>
      </trkpt>
      <trkpt lat="46.73518" lon="-1.9902">
        <ele>13.9</ele>
        <time>2024-03-22T10:05:07Z</time>
      </trkpt>
      <trkpt lat="46.73528" lon="-1.99017">
        <ele>13.7</ele>
        <time>2024-03-22T10:05:16Z</time>
      </trkpt>
      <trkpt lat="46.73532" lon="-1.99005">
        <ele>13.5</ele>
        <time>2024-03-22T10:05:25Z</time>
      </trkpt>
      <trkpt lat="46.7354" lon="-1.98997">
        <ele>13.8</ele>
        <time>2024-03-22T10:05:32Z</time>
      </trkpt>
      <trkpt lat="46.73549" lon="-1.98993">
        <ele>13.7</ele>
        <time>2024-03-22T10:05:38Z</time>
      </trkpt>
      <trkpt lat="46.73557" lon="-1.98986">
        <ele>12.6</ele>
        <time>2024-03-22T10:05:45Z</time>
      </trkpt>
      <trkpt lat="46.73567" lon="-1.98987">
        <ele>12.1</ele>
        <time>2024-03-22T10:05:53Z</time>
      </trkpt>
      <trkpt lat="46.73575" lon="-1.98994">
        <ele>11.5</ele>
        <time>2024-03-22T10:06:07Z</time>
      </trkpt>
      <trkpt lat="46.73584" lon="-1.98996">
        <ele>10.8</ele>
        <time>2024-03-22T10:06:16Z</time>
      </trkpt>
      <trkpt lat="46.73593" lon="-1.99001">
        <ele>10.8</ele>
        <time>2024-03-22T10:06:25Z</time>
      </trkpt>
      <trkpt lat="46.73601" lon="-1.99006">
        <ele>11.5</ele>
        <time>2024-03-22T10:06:41Z</time>
      </trkpt>
      <trkpt lat="46.73608" lon="-1.99015">
        <ele>10.8</ele>
        <time>2024-03-22T10:06:49Z</time>
      </trkpt>
      <trkpt lat="46.73608" lon="-1.99028">
        <ele>10.4</ele>
        <time>2024-03-22T10:06:59Z</time>
      </trkpt>
      <trkpt lat="46.73606" lon="-1.99043">
        <ele>10.1</ele>
        <time>2024-03-22T10:07:07Z</time>
      </trkpt>
      <trkpt lat="46.73602" lon="-1.99054">
        <ele>8.6</ele>
        <time>2024-03-22T10:07:17Z</time>
      </trkpt>
      <trkpt lat="46.73594" lon="-1.99064">
        <ele>7.3</ele>
        <time>2024-03-22T10:07:26Z</time>
      </trkpt>
      <trkpt lat="46.73591" lon="-1.99078">
        <ele>6</ele>
        <time>2024-03-22T10:07:35Z</time>
      </trkpt>
      <trkpt lat="46.73588" lon="-1.99091">
        <ele>5.3</ele>
        <time>2024-03-22T10:07:43Z</time>
      </trkpt>
      <trkpt lat="46.73582" lon="-1.99102">
        <ele>5.6</ele>
        <time>2024-03-22T10:07:51Z</time>
      </trkpt>
      <trkpt lat="46.73577" lon="-1.99114">
        <ele>6.1</ele>
        <time>2024-03-22T10:07:59Z</time>
      </trkpt>
      <trkpt lat="46.73569" lon="-1.99122">
        <ele>6.4</ele>
        <time>2024-03-22T10:08:06Z</time>
      </trkpt>
      <trkpt lat="46.73562" lon="-1.99133">
        <ele>7</ele>
        <time>2024-03-22T10:08:13Z</time>
      </trkpt>
      <trkpt lat="46.73556" lon="-1.99143">
        <ele>7.8</ele>
        <time>2024-03-22T10:08:21Z</time>
      </trkpt>
      <trkpt lat="46.7355" lon="-1.99153">
        <ele>7.8</ele>
        <time>2024-03-22T10:08:29Z</time>
      </trkpt>
      <trkpt lat="46.73543" lon="-1.99163">
        <ele>7.3</ele>
        <time>2024-03-22T10:08:36Z</time>
      </trkpt>
      <trkpt lat="46.73537" lon="-1.99173">
        <ele>6.8</ele>
        <time>2024-03-22T10:08:43Z</time>
      </trkpt>
      <trkpt lat="46.73532" lon="-1.99185">
        <ele>6.6</ele>
        <time>2024-03-22T10:08:50Z</time>
      </trkpt>
      <trkpt lat="46.73527" lon="-1.99198">
        <ele>6.3</ele>
        <time>2024-03-22T10:08:58Z</time>
      </trkpt>
      <trkpt lat="46.73524" lon="-1.99211">
        <ele>6.2</ele>
        <time>2024-03-22T10:09:05Z</time>
      </trkpt>
      <trkpt lat="46.7352" lon="-1.99225">
        <ele>5.9</ele>
        <time>2024-03-22T10:09:12Z</time>
      </trkpt>
      <trkpt lat="46.73517" lon="-1.99239">
        <ele>5.5</ele>
        <time>2024-03-22T10:09:19Z</time>
      </trkpt>
      <trkpt lat="46.73511" lon="-1.99249">
        <ele>5.4</ele>
        <time>2024-03-22T10:09:25Z</time>
      </trkpt>
      <trkpt lat="46.73504" lon="-1.99259">
        <ele>5.4</ele>
        <time>2024-03-22T10:09:34Z</time>
      </trkpt>
      <trkpt lat="46.73495" lon="-1.99264">
        <ele>4.9</ele>
        <time>2024-03-22T10:09:41Z</time>
      </trkpt>
      <trkpt lat="46.73486" lon="-1.99268">
        <ele>3.5</ele>
        <time>2024-03-22T10:09:49Z</time>
      </trkpt>
      <trkpt lat="46.73477" lon="-1.99271">
        <ele>2.9</ele>
        <time>2024-03-22T10:09:55Z</time>
      </trkpt>
      <trkpt lat="46.73468" lon="-1.99273">
        <ele>2.9</ele>
        <time>2024-03-22T10:10:02Z</time>
      </trkpt>
      <trkpt lat="46.7346" lon="-1.99278">
        <ele>3.1</ele>
        <time>2024-03-22T10:10:09Z</time>
      </trkpt>
      <trkpt lat="46.73451" lon="-1.99282">
        <ele>3.1</ele>
        <time>2024-03-22T10:10:17Z</time>
      </trkpt>
      <trkpt lat="46.73443" lon="-1.99289">
        <ele>2.6</ele>
        <time>2024-03-22T10:10:25Z</time>
      </trkpt>
      <trkpt lat="46.73436" lon="-1.99298">
        <ele>2.1</ele>
        <time>2024-03-22T10:10:32Z</time>
      </trkpt>
      <trkpt lat="46.73429" lon="-1.99309">
        <ele>2</ele>
        <time>2024-03-22T10:10:40Z</time>
      </trkpt>
      <trkpt lat="46.73422" lon="-1.9932">
        <ele>2.6</ele>
        <time>2024-03-22T10:10:48Z</time>
      </trkpt>
      <trkpt lat="46.73419" lon="-1.99333">
        <ele>3.7</ele>
        <time>2024-03-22T10:10:58Z</time>
      </trkpt>
      <trkpt lat="46.73414" lon="-1.99344">
        <ele>5.3</ele>
        <time>2024-03-22T10:11:07Z</time>
      </trkpt>
      <trkpt lat="46.73407" lon="-1.99354">
        <ele>7.1</ele>
        <time>2024-03-22T10:11:16Z</time>
      </trkpt>
      <trkpt lat="46.73404" lon="-1.99367">
        <ele>8.4</ele>
        <time>2024-03-22T10:11:25Z</time>
      </trkpt>
      <trkpt lat="46.73397" lon="-1.99375">
        <ele>10.4</ele>
        <time>2024-03-22T10:11:36Z</time>
      </trkpt>
      <trkpt lat="46.73395" lon="-1.99388">
        <ele>12.8</ele>
        <time>2024-03-22T10:11:51Z</time>
      </trkpt>
      <trkpt lat="46.73392" lon="-1.99402">
        <ele>13</ele>
        <time>2024-03-22T10:12:00Z</time>
      </trkpt>
      <trkpt lat="46.73389" lon="-1.99414">
        <ele>12.8</ele>
        <time>2024-03-22T10:12:12Z</time>
      </trkpt>
      <trkpt lat="46.73389" lon="-1.99428">
        <ele>10.8</ele>
        <time>2024-03-22T10:13:07Z</time>
      </trkpt>
      <trkpt lat="46.73388" lon="-1.99442">
        <ele>8.4</ele>
        <time>2024-03-22T10:13:23Z</time>
      </trkpt>
      <trkpt lat="46.73388" lon="-1.99455">
        <ele>4.7</ele>
        <time>2024-03-22T10:13:43Z</time>
      </trkpt>
      <trkpt lat="46.73388" lon="-1.99468">
        <ele>3.1</ele>
        <time>2024-03-22T10:13:53Z</time>
      </trkpt>
      <trkpt lat="46.73382" lon="-1.9948">
        <ele>1.1</ele>
        <time>2024-03-22T10:14:22Z</time>
      </trkpt>
      <trkpt lat="46.73379" lon="-1.99493">
        <ele>0.7</ele>
        <time>2024-03-22T10:14:31Z</time>
      </trkpt>
      <trkpt lat="46.73376" lon="-1.99507">
        <ele>0.2</ele>
        <time>2024-03-22T10:14:40Z</time>
      </trkpt>
      <trkpt lat="46.73372" lon="-1.9952">
        <ele>0.1</ele>
        <time>2024-03-22T10:14:48Z</time>
      </trkpt>
      <trkpt lat="46.73369" lon="-1.99532">
        <ele>-0.4</ele>
        <time>2024-03-22T10:14:55Z</time>
      </trkpt>
      <trkpt lat="46.73361" lon="-1.99539">
        <ele>-1.4</ele>
        <time>2024-03-22T10:15:22Z</time>
      </trkpt>
      <trkpt lat="46.73357" lon="-1.99551">
        <ele>-1.6</ele>
        <time>2024-03-22T10:15:30Z</time>
      </trkpt>
      <trkpt lat="46.73354" lon="-1.99565">
        <ele>-1.9</ele>
        <time>2024-03-22T10:15:38Z</time>
      </trkpt>
      <trkpt lat="46.7335" lon="-1.99578">
        <ele>-2.3</ele>
        <time>2024-03-22T10:15:46Z</time>
      </trkpt>
      <trkpt lat="46.73343" lon="-1.99589">
        <ele>-2.4</ele>
        <time>2024-03-22T10:15:54Z</time>
      </trkpt>
      <trkpt lat="46.73335" lon="-1.99596">
        <ele>-2.6</ele>
        <time>2024-03-22T10:16:02Z</time>
      </trkpt>
      <trkpt lat="46.73328" lon="-1.99606">
        <ele>-2.7</ele>
        <time>2024-03-22T10:16:10Z</time>
      </trkpt>
      <trkpt lat="46.73321" lon="-1.99617">
        <ele>-2.7</ele>
        <time>2024-03-22T10:16:18Z</time>
      </trkpt>
      <trkpt lat="46.73314" lon="-1.99625">
        <ele>-2.8</ele>
        <time>2024-03-22T10:16:25Z</time>
      </trkpt>
      <trkpt lat="46.73304" lon="-1.99631">
        <ele>-2.9</ele>
        <time>2024-03-22T10:16:33Z</time>
      </trkpt>
      <trkpt lat="46.73296" lon="-1.99637">
        <ele>-3.1</ele>
        <time>2024-03-22T10:16:40Z</time>
      </trkpt>
      <trkpt lat="46.73287" lon="-1.99643">
        <ele>-3.2</ele>
        <time>2024-03-22T10:16:48Z</time>
      </trkpt>
      <trkpt lat="46.73279" lon="-1.99651">
        <ele>-3.2</ele>
        <time>2024-03-22T10:16:56Z</time>
      </trkpt>
      <trkpt lat="46.73271" lon="-1.99658">
        <ele>-3.3</ele>
        <time>2024-03-22T10:17:04Z</time>
      </trkpt>
      <trkpt lat="46.73263" lon="-1.99665">
        <ele>-3.4</ele>
        <time>2024-03-22T10:17:12Z</time>
      </trkpt>
      <trkpt lat="46.73254" lon="-1.9967">
        <ele>-3.1</ele>
        <time>2024-03-22T10:17:21Z</time>
      </trkpt>
      <trkpt lat="46.73248" lon="-1.99679">
        <ele>-2.8</ele>
        <time>2024-03-22T10:17:31Z</time>
      </trkpt>
      <trkpt lat="46.73243" lon="-1.99691">
        <ele>-2</ele>
        <time>2024-03-22T10:17:42Z</time>
      </trkpt>
      <trkpt lat="46.73237" lon="-1.99702">
        <ele>-1</ele>
        <time>2024-03-22T10:17:54Z</time>
      </trkpt>
      <trkpt lat="46.73232" lon="-1.99715">
        <ele>0.4</ele>
        <time>2024-03-22T10:18:07Z</time>
      </trkpt>
      <trkpt lat="46.73232" lon="-1.99729">
        <ele>2.1</ele>
        <time>2024-03-22T10:18:21Z</time>
      </trkpt>
      <trkpt lat="46.73226" lon="-1.99739">
        <ele>1.7</ele>
        <time>2024-03-22T10:18:34Z</time>
      </trkpt>
      <trkpt lat="46.73221" lon="-1.9975">
        <ele>-0.6</ele>
        <time>2024-03-22T10:19:13Z</time>
      </trkpt>
      <trkpt lat="46.73214" lon="-1.99757">
        <ele>-2.1</ele>
        <time>2024-03-22T10:19:30Z</time>
      </trkpt>
      <trkpt lat="46.73206" lon="-1.99767">
        <ele>-3.6</ele>
        <time>2024-03-22T10:19:41Z</time>
      </trkpt>
      <trkpt lat="46.73198" lon="-1.99775">
        <ele>-4.5</ele>
        <time>2024-03-22T10:19:50Z</time>
      </trkpt>
      <trkpt lat="46.7319" lon="-1.99767">
        <ele>-5.4</ele>
        <time>2024-03-22T10:19:59Z</time>
      </trkpt>
      <trkpt lat="46.73182" lon="-1.99757">
        <ele>-5.5</ele>
        <time>2024-03-22T10:20:07Z</time>
      </trkpt>
      <trkpt lat="46.73175" lon="-1.99749">
        <ele>-5.6</ele>
        <time>2024-03-22T10:20:15Z</time>
      </trkpt>
      <trkpt lat="46.73169" lon="-1.99739">
        <ele>-5.5</ele>
        <time>2024-03-22T10:20:29Z</time>
      </trkpt>
      <trkpt lat="46.73162" lon="-1.99728">
        <ele>-5.5</ele>
        <time>2024-03-22T10:20:38Z</time>
      </trkpt>
      <trkpt lat="46.73155" lon="-1.99718">
        <ele>-5.5</ele>
        <time>2024-03-22T10:20:46Z</time>
      </trkpt>
      <trkpt lat="46.73148" lon="-1.99709">
        <ele>-5.5</ele>
        <time>2024-03-22T10:20:54Z</time>
      </trkpt>
      <trkpt lat="46.73141" lon="-1.997">
        <ele>-5.7</ele>
        <time>2024-03-22T10:21:03Z</time>
      </trkpt>
      <trkpt lat="46.73133" lon="-1.99692">
        <ele>-5.8</ele>
        <time>2024-03-22T10:21:10Z</time>
      </trkpt>
      <trkpt lat="46.73126" lon="-1.99683">
        <ele>-5.9</ele>
        <time>2024-03-22T10:21:18Z</time>
      </trkpt>
      <trkpt lat="46.73118" lon="-1.99673">
        <ele>-6</ele>
        <time>2024-03-22T10:21:26Z</time>
      </trkpt>
      <trkpt lat="46.73111" lon="-1.99666">
        <ele>-6.2</ele>
        <time>2024-03-22T10:21:33Z</time>
      </trkpt>
      <trkpt lat="46.73102" lon="-1.99657">
        <ele>-6.3</ele>
        <time>2024-03-22T10:21:41Z</time>
      </trkpt>
      <trkpt lat="46.73095" lon="-1.99647">
        <ele>-6.3</ele>
        <time>2024-03-22T10:21:49Z</time>
      </trkpt>
      <trkpt lat="46.73088" lon="-1.99637">
        <ele>-6.2</ele>
        <time>2024-03-22T10:21:56Z</time>
      </trkpt>
      <trkpt lat="46.73082" lon="-1.99627">
        <ele>-6.2</ele>
        <time>2024-03-22T10:22:05Z</time>
      </trkpt>
      <trkpt lat="46.73075" lon="-1.99616">
        <ele>-6.2</ele>
        <time>2024-03-22T10:22:14Z</time>
      </trkpt>
      <trkpt lat="46.73068" lon="-1.99608">
        <ele>-6.3</ele>
        <time>2024-03-22T10:22:22Z</time>
      </trkpt>
      <trkpt lat="46.73061" lon="-1.99598">
        <ele>-6.3</ele>
        <time>2024-03-22T10:22:29Z</time>
      </trkpt>
      <trkpt lat="46.73054" lon="-1.99588">
        <ele>-6.4</ele>
        <time>2024-03-22T10:22:37Z</time>
      </trkpt>
      <trkpt lat="46.73046" lon="-1.99579">
        <ele>-6.5</ele>
        <time>2024-03-22T10:22:45Z</time>
      </trkpt>
      <trkpt lat="46.73039" lon="-1.9957">
        <ele>-6.8</ele>
        <time>2024-03-22T10:22:53Z</time>
      </trkpt>
      <trkpt lat="46.73031" lon="-1.9956">
        <ele>-7</ele>
        <time>2024-03-22T10:23:01Z</time>
      </trkpt>
      <trkpt lat="46.73023" lon="-1.99551">
        <ele>-7.1</ele>
        <time>2024-03-22T10:23:08Z</time>
      </trkpt>
      <trkpt lat="46.73015" lon="-1.99542">
        <ele>-7.2</ele>
        <time>2024-03-22T10:23:15Z</time>
      </trkpt>
      <trkpt lat="46.73007" lon="-1.99535">
        <ele>-7.4</ele>
        <time>2024-03-22T10:23:22Z</time>
      </trkpt>
      <trkpt lat="46.72999" lon="-1.99526">
        <ele>-7.5</ele>
        <time>2024-03-22T10:23:29Z</time>
      </trkpt>
      <trkpt lat="46.7299" lon="-1.99518">
        <ele>-7.6</ele>
        <time>2024-03-22T10:23:36Z</time>
      </trkpt>
      <trkpt lat="46.72984" lon="-1.99507">
        <ele>-7.7</ele>
        <time>2024-03-22T10:23:45Z</time>
      </trkpt>
      <trkpt lat="46.72976" lon="-1.99498">
        <ele>-7.5</ele>
        <time>2024-03-22T10:23:52Z</time>
      </trkpt>
      <trkpt lat="46.72967" lon="-1.99491">
        <ele>-7.7</ele>
        <time>2024-03-22T10:23:59Z</time>
      </trkpt>
      <trkpt lat="46.72959" lon="-1.99483">
        <ele>-7.7</ele>
        <time>2024-03-22T10:24:06Z</time>
      </trkpt>
      <trkpt lat="46.72952" lon="-1.99474">
        <ele>-7.7</ele>
        <time>2024-03-22T10:24:14Z</time>
      </trkpt>
      <trkpt lat="46.72945" lon="-1.99465">
        <ele>-7.7</ele>
        <time>2024-03-22T10:24:21Z</time>
      </trkpt>
      <trkpt lat="46.72938" lon="-1.99457">
        <ele>-7.7</ele>
        <time>2024-03-22T10:24:28Z</time>
      </trkpt>
      <trkpt lat="46.72929" lon="-1.99449">
        <ele>-7.7</ele>
        <time>2024-03-22T10:24:35Z</time>
      </trkpt>
      <trkpt lat="46.72921" lon="-1.99442">
        <ele>-7.7</ele>
        <time>2024-03-22T10:24:41Z</time>
      </trkpt>
      <trkpt lat="46.72914" lon="-1.99434">
        <ele>-7.5</ele>
        <time>2024-03-22T10:24:48Z</time>
      </trkpt>
      <trkpt lat="46.72907" lon="-1.99425">
        <ele>-7.5</ele>
        <time>2024-03-22T10:24:56Z</time>
      </trkpt>
      <trkpt lat="46.729" lon="-1.99416">
        <ele>-7.6</ele>
        <time>2024-03-22T10:25:04Z</time>
      </trkpt>
      <trkpt lat="46.72892" lon="-1.99406">
        <ele>-7.6</ele>
        <time>2024-03-22T10:25:13Z</time>
      </trkpt>
      <trkpt lat="46.72886" lon="-1.99394">
        <ele>-7.4</ele>
        <time>2024-03-22T10:25:21Z</time>
      </trkpt>
      <trkpt lat="46.72879" lon="-1.99383">
        <ele>-7</ele>
        <time>2024-03-22T10:25:29Z</time>
      </trkpt>
      <trkpt lat="46.72872" lon="-1.99373">
        <ele>-7.2</ele>
        <time>2024-03-22T10:25:38Z</time>
      </trkpt>
      <trkpt lat="46.72865" lon="-1.99362">
        <ele>-7.2</ele>
        <time>2024-03-22T10:25:47Z</time>
      </trkpt>
      <trkpt lat="46.72857" lon="-1.99353">
        <ele>-7.2</ele>
        <time>2024-03-22T10:25:55Z</time>
      </trkpt>
      <trkpt lat="46.7285" lon="-1.99344">
        <ele>-7.1</ele>
        <time>2024-03-22T10:26:02Z</time>
      </trkpt>
      <trkpt lat="46.72843" lon="-1.99334">
        <ele>-7.1</ele>
        <time>2024-03-22T10:26:09Z</time>
      </trkpt>
      <trkpt lat="46.72834" lon="-1.99328">
        <ele>-7</ele>
        <time>2024-03-22T10:26:15Z</time>
      </trkpt>
      <trkpt lat="46.72825" lon="-1.9932">
        <ele>-7</ele>
        <time>2024-03-22T10:26:22Z</time>
      </trkpt>
      <trkpt lat="46.72817" lon="-1.99312">
        <ele>-7</ele>
        <time>2024-03-22T10:26:29Z</time>
      </trkpt>
      <trkpt lat="46.72809" lon="-1.99304">
        <ele>-7</ele>
        <time>2024-03-22T10:26:36Z</time>
      </trkpt>
      <trkpt lat="46.72803" lon="-1.99295">
        <ele>-7.1</ele>
        <time>2024-03-22T10:26:51Z</time>
      </trkpt>
      <trkpt lat="46.72797" lon="-1.99284">
        <ele>-7</ele>
        <time>2024-03-22T10:27:08Z</time>
      </trkpt>
      <trkpt lat="46.7279" lon="-1.99274">
        <ele>-7.1</ele>
        <time>2024-03-22T10:27:16Z</time>
      </trkpt>
      <trkpt lat="46.72783" lon="-1.99265">
        <ele>-7</ele>
        <time>2024-03-22T10:27:25Z</time>
      </trkpt>
      <trkpt lat="46.72775" lon="-1.99255">
        <ele>-7.1</ele>
        <time>2024-03-22T10:27:33Z</time>
      </trkpt>
      <trkpt lat="46.72768" lon="-1.99247">
        <ele>-7.2</ele>
        <time>2024-03-22T10:27:41Z</time>
      </trkpt>
      <trkpt lat="46.7276" lon="-1.99237">
        <ele>-7.3</ele>
        <time>2024-03-22T10:27:48Z</time>
      </trkpt>
      <trkpt lat="46.72752" lon="-1.99229">
        <ele>-7.3</ele>
        <time>2024-03-22T10:27:56Z</time>
      </trkpt>
      <trkpt lat="46.72744" lon="-1.99222">
        <ele>-7.4</ele>
        <time>2024-03-22T10:28:03Z</time>
      </trkpt>
      <trkpt lat="46.72736" lon="-1.99214">
        <ele>-7.5</ele>
        <time>2024-03-22T10:28:10Z</time>
      </trkpt>
      <trkpt lat="46.72728" lon="-1.99205">
        <ele>-7.6</ele>
        <time>2024-03-22T10:28:17Z</time>
      </trkpt>
      <trkpt lat="46.72721" lon="-1.99194">
        <ele>-7.6</ele>
        <time>2024-03-22T10:28:24Z</time>
      </trkpt>
      <trkpt lat="46.72714" lon="-1.99184">
        <ele>-7.6</ele>
        <time>2024-03-22T10:28:32Z</time>
      </trkpt>
      <trkpt lat="46.72708" lon="-1.99174">
        <ele>-7.6</ele>
        <time>2024-03-22T10:28:39Z</time>
      </trkpt>
      <trkpt lat="46.72701" lon="-1.99166">
        <ele>-7.6</ele>
        <time>2024-03-22T10:28:46Z</time>
      </trkpt>
      <trkpt lat="46.72693" lon="-1.99157">
        <ele>-7.6</ele>
        <time>2024-03-22T10:28:53Z</time>
      </trkpt>
      <trkpt lat="46.72686" lon="-1.99149">
        <ele>-7.6</ele>
        <time>2024-03-22T10:29:00Z</time>
      </trkpt>
      <trkpt lat="46.7268" lon="-1.99137">
        <ele>-7.6</ele>
        <time>2024-03-22T10:29:08Z</time>
      </trkpt>
      <trkpt lat="46.72673" lon="-1.99126">
        <ele>-7.6</ele>
        <time>2024-03-22T10:29:16Z</time>
      </trkpt>
      <trkpt lat="46.72664" lon="-1.9912">
        <ele>-7.6</ele>
        <time>2024-03-22T10:29:23Z</time>
      </trkpt>
      <trkpt lat="46.72656" lon="-1.99114">
        <ele>-7.7</ele>
        <time>2024-03-22T10:29:30Z</time>
      </trkpt>
      <trkpt lat="46.72648" lon="-1.99105">
        <ele>-8</ele>
        <time>2024-03-22T10:29:38Z</time>
      </trkpt>
      <trkpt lat="46.72641" lon="-1.99096">
        <ele>-8.1</ele>
        <time>2024-03-22T10:29:45Z</time>
      </trkpt>
      <trkpt lat="46.72634" lon="-1.99088">
        <ele>-8.2</ele>
        <time>2024-03-22T10:29:52Z</time>
      </trkpt>
      <trkpt lat="46.72628" lon="-1.99077">
        <ele>-8.1</ele>
        <time>2024-03-22T10:30:00Z</time>
      </trkpt>
      <trkpt lat="46.72621" lon="-1.99067">
        <ele>-8</ele>
        <time>2024-03-22T10:30:07Z</time>
      </trkpt>
      <trkpt lat="46.72615" lon="-1.99057">
        <ele>-8.2</ele>
        <time>2024-03-22T10:30:55Z</time>
      </trkpt>
      <trkpt lat="46.72609" lon="-1.99047">
        <ele>-8.2</ele>
        <time>2024-03-22T10:31:03Z</time>
      </trkpt>
      <trkpt lat="46.72602" lon="-1.99039">
        <ele>-8</ele>
        <time>2024-03-22T10:31:10Z</time>
      </trkpt>
      <trkpt lat="46.72594" lon="-1.99029">
        <ele>-7.9</ele>
        <time>2024-03-22T10:31:18Z</time>
      </trkpt>
      <trkpt lat="46.72587" lon="-1.9902">
        <ele>-8</ele>
        <time>2024-03-22T10:31:26Z</time>
      </trkpt>
      <trkpt lat="46.72581" lon="-1.99009">
        <ele>-8</ele>
        <time>2024-03-22T10:31:34Z</time>
      </trkpt>
      <trkpt lat="46.72575" lon="-1.98998">
        <ele>-8</ele>
        <time>2024-03-22T10:31:42Z</time>
      </trkpt>
      <trkpt lat="46.72569" lon="-1.98987">
        <ele>-8</ele>
        <time>2024-03-22T10:31:50Z</time>
      </trkpt>
      <trkpt lat="46.72562" lon="-1.98977">
        <ele>-7.9</ele>
        <time>2024-03-22T10:31:58Z</time>
      </trkpt>
      <trkpt lat="46.72555" lon="-1.98968">
        <ele>-7.6</ele>
        <time>2024-03-22T10:33:02Z</time>
      </trkpt>
      <trkpt lat="46.72549" lon="-1.98959">
        <ele>-7.4</ele>
        <time>2024-03-22T10:35:19Z</time>
      </trkpt>
      <trkpt lat="46.72542" lon="-1.98951">
        <ele>-7.4</ele>
        <time>2024-03-22T10:35:29Z</time>
      </trkpt>
      <trkpt lat="46.72535" lon="-1.98942">
        <ele>-7.4</ele>
        <time>2024-03-22T10:35:37Z</time>
      </trkpt>
      <trkpt lat="46.72527" lon="-1.98932">
        <ele>-7.5</ele>
        <time>2024-03-22T10:35:45Z</time>
      </trkpt>
      <trkpt lat="46.72521" lon="-1.98922">
        <ele>-7.5</ele>
        <time>2024-03-22T10:35:53Z</time>
      </trkpt>
      <trkpt lat="46.72514" lon="-1.98913">
        <ele>-7.4</ele>
        <time>2024-03-22T10:36:00Z</time>
      </trkpt>
      <trkpt lat="46.72505" lon="-1.98905">
        <ele>-7.3</ele>
        <time>2024-03-22T10:36:08Z</time>
      </trkpt>
      <trkpt lat="46.72497" lon="-1.98896">
        <ele>-7.4</ele>
        <time>2024-03-22T10:36:16Z</time>
      </trkpt>
      <trkpt lat="46.7249" lon="-1.98887">
        <ele>-7.4</ele>
        <time>2024-03-22T10:36:23Z</time>
      </trkpt>
      <trkpt lat="46.72484" lon="-1.98877">
        <ele>-7.5</ele>
        <time>2024-03-22T10:36:30Z</time>
      </trkpt>
      <trkpt lat="46.72477" lon="-1.98867">
        <ele>-7.5</ele>
        <time>2024-03-22T10:36:37Z</time>
      </trkpt>
      <trkpt lat="46.7247" lon="-1.98859">
        <ele>-7.5</ele>
        <time>2024-03-22T10:36:44Z</time>
      </trkpt>
      <trkpt lat="46.72463" lon="-1.9885">
        <ele>-7.6</ele>
        <time>2024-03-22T10:37:00Z</time>
      </trkpt>
      <trkpt lat="46.72456" lon="-1.9884">
        <ele>-7.6</ele>
        <time>2024-03-22T10:37:08Z</time>
      </trkpt>
      <trkpt lat="46.72449" lon="-1.98829">
        <ele>-7.3</ele>
        <time>2024-03-22T10:37:17Z</time>
      </trkpt>
      <trkpt lat="46.72442" lon="-1.98819">
        <ele>-7.3</ele>
        <time>2024-03-22T10:37:25Z</time>
      </trkpt>
      <trkpt lat="46.72435" lon="-1.9881">
        <ele>-7.2</ele>
        <time>2024-03-22T10:37:33Z</time>
      </trkpt>
      <trkpt lat="46.72427" lon="-1.988">
        <ele>-7.2</ele>
        <time>2024-03-22T10:37:41Z</time>
      </trkpt>
      <trkpt lat="46.7242" lon="-1.9879">
        <ele>-7.2</ele>
        <time>2024-03-22T10:37:49Z</time>
      </trkpt>
      <trkpt lat="46.72413" lon="-1.98781">
        <ele>-7</ele>
        <time>2024-03-22T10:37:56Z</time>
      </trkpt>
      <trkpt lat="46.72405" lon="-1.98772">
        <ele>-7</ele>
        <time>2024-03-22T10:38:04Z</time>
      </trkpt>
      <trkpt lat="46.72398" lon="-1.98762">
        <ele>-7.1</ele>
        <time>2024-03-22T10:38:11Z</time>
      </trkpt>
      <trkpt lat="46.72391" lon="-1.98752">
        <ele>-7.1</ele>
        <time>2024-03-22T10:38:19Z</time>
      </trkpt>
      <trkpt lat="46.72385" lon="-1.98742">
        <ele>-7.2</ele>
        <time>2024-03-22T10:38:27Z</time>
      </trkpt>
      <trkpt lat="46.72378" lon="-1.98734">
        <ele>-7.1</ele>
        <time>2024-03-22T10:38:34Z</time>
      </trkpt>
      <trkpt lat="46.72371" lon="-1.98724">
        <ele>-7</ele>
        <time>2024-03-22T10:38:41Z</time>
      </trkpt>
      <trkpt lat="46.72364" lon="-1.98715">
        <ele>-6.9</ele>
        <time>2024-03-22T10:38:48Z</time>
      </trkpt>
      <trkpt lat="46.72357" lon="-1.98704">
        <ele>-6.9</ele>
        <time>2024-03-22T10:38:56Z</time>
      </trkpt>
      <trkpt lat="46.7235" lon="-1.98696">
        <ele>-6.9</ele>
        <time>2024-03-22T10:39:03Z</time>
      </trkpt>
      <trkpt lat="46.72342" lon="-1.98686">
        <ele>-7</ele>
        <time>2024-03-22T10:39:11Z</time>
      </trkpt>
      <trkpt lat="46.72335" lon="-1.98678">
        <ele>-7.1</ele>
        <time>2024-03-22T10:39:18Z</time>
      </trkpt>
      <trkpt lat="46.72328" lon="-1.98669">
        <ele>-7.1</ele>
        <time>2024-03-22T10:39:25Z</time>
      </trkpt>
      <trkpt lat="46.7232" lon="-1.9866">
        <ele>-7.1</ele>
        <time>2024-03-22T10:39:32Z</time>
      </trkpt>
      <trkpt lat="46.72313" lon="-1.98651">
        <ele>-6.9</ele>
        <time>2024-03-22T10:39:39Z</time>
      </trkpt>
      <trkpt lat="46.72306" lon="-1.9864">
        <ele>-6.9</ele>
        <time>2024-03-22T10:39:47Z</time>
      </trkpt>
      <trkpt lat="46.723" lon="-1.9863">
        <ele>-6.9</ele>
        <time>2024-03-22T10:39:54Z</time>
      </trkpt>
      <trkpt lat="46.72293" lon="-1.9862">
        <ele>-6.8</ele>
        <time>2024-03-22T10:40:02Z</time>
      </trkpt>
      <trkpt lat="46.72286" lon="-1.98612">
        <ele>-6.8</ele>
        <time>2024-03-22T10:40:09Z</time>
      </trkpt>
      <trkpt lat="46.72279" lon="-1.98601">
        <ele>-6.7</ele>
        <time>2024-03-22T10:40:17Z</time>
      </trkpt>
      <trkpt lat="46.72273" lon="-1.9859">
        <ele>-6.8</ele>
        <time>2024-03-22T10:40:26Z</time>
      </trkpt>
      <trkpt lat="46.72266" lon="-1.9858">
        <ele>-6.6</ele>
        <time>2024-03-22T10:40:34Z</time>
      </trkpt>
      <trkpt lat="46.72258" lon="-1.98571">
        <ele>-6.6</ele>
        <time>2024-03-22T10:40:41Z</time>
      </trkpt>
      <trkpt lat="46.72251" lon="-1.98561">
        <ele>-6.6</ele>
        <time>2024-03-22T10:40:49Z</time>
      </trkpt>
      <trkpt lat="46.72243" lon="-1.98551">
        <ele>-6.4</ele>
        <time>2024-03-22T10:40:57Z</time>
      </trkpt>
      <trkpt lat="46.72237" lon="-1.98541">
        <ele>-6.3</ele>
        <time>2024-03-22T10:41:05Z</time>
      </trkpt>
      <trkpt lat="46.7223" lon="-1.98532">
        <ele>-6.3</ele>
        <time>2024-03-22T10:41:13Z</time>
      </trkpt>
      <trkpt lat="46.72222" lon="-1.98523">
        <ele>-6.3</ele>
        <time>2024-03-22T10:41:20Z</time>
      </trkpt>
      <trkpt lat="46.72214" lon="-1.98516">
        <ele>-6.3</ele>
        <time>2024-03-22T10:41:26Z</time>
      </trkpt>
      <trkpt lat="46.72207" lon="-1.98508">
        <ele>-6.3</ele>
        <time>2024-03-22T10:41:33Z</time>
      </trkpt>
      <trkpt lat="46.72199" lon="-1.98499">
        <ele>-6.3</ele>
        <time>2024-03-22T10:41:40Z</time>
      </trkpt>
      <trkpt lat="46.72191" lon="-1.9849">
        <ele>-6.1</ele>
        <time>2024-03-22T10:41:48Z</time>
      </trkpt>
      <trkpt lat="46.72184" lon="-1.98481">
        <ele>-6.2</ele>
        <time>2024-03-22T10:41:56Z</time>
      </trkpt>
      <trkpt lat="46.72177" lon="-1.98472">
        <ele>-6.2</ele>
        <time>2024-03-22T10:42:04Z</time>
      </trkpt>
      <trkpt lat="46.7217" lon="-1.98463">
        <ele>-6.1</ele>
        <time>2024-03-22T10:42:12Z</time>
      </trkpt>
      <trkpt lat="46.72163" lon="-1.98454">
        <ele>-6.2</ele>
        <time>2024-03-22T10:42:20Z</time>
      </trkpt>
      <trkpt lat="46.72156" lon="-1.98444">
        <ele>-6.3</ele>
        <time>2024-03-22T10:42:29Z</time>
      </trkpt>
      <trkpt lat="46.72149" lon="-1.98435">
        <ele>-6.3</ele>
        <time>2024-03-22T10:42:36Z</time>
      </trkpt>
      <trkpt lat="46.72141" lon="-1.98426">
        <ele>-6.3</ele>
        <time>2024-03-22T10:42:44Z</time>
      </trkpt>
      <trkpt lat="46.72134" lon="-1.98417">
        <ele>-6.3</ele>
        <time>2024-03-22T10:42:52Z</time>
      </trkpt>
      <trkpt lat="46.72126" lon="-1.98408">
        <ele>-6.3</ele>
        <time>2024-03-22T10:42:59Z</time>
      </trkpt>
      <trkpt lat="46.72119" lon="-1.984">
        <ele>-6.3</ele>
        <time>2024-03-22T10:43:06Z</time>
      </trkpt>
      <trkpt lat="46.72111" lon="-1.98392">
        <ele>-6.3</ele>
        <time>2024-03-22T10:43:14Z</time>
      </trkpt>
      <trkpt lat="46.72104" lon="-1.98384">
        <ele>-6.3</ele>
        <time>2024-03-22T10:43:21Z</time>
      </trkpt>
      <trkpt lat="46.72096" lon="-1.98376">
        <ele>-6.3</ele>
        <time>2024-03-22T10:43:29Z</time>
      </trkpt>
      <trkpt lat="46.72089" lon="-1.98367">
        <ele>-6.2</ele>
        <time>2024-03-22T10:43:36Z</time>
      </trkpt>
      <trkpt lat="46.72082" lon="-1.98359">
        <ele>-6.1</ele>
        <time>2024-03-22T10:43:43Z</time>
      </trkpt>
      <trkpt lat="46.72074" lon="-1.9835">
        <ele>-6.2</ele>
        <time>2024-03-22T10:43:50Z</time>
      </trkpt>
      <trkpt lat="46.72066" lon="-1.98343">
        <ele>-6.2</ele>
        <time>2024-03-22T10:43:57Z</time>
      </trkpt>
      <trkpt lat="46.72058" lon="-1.98335">
        <ele>-6.1</ele>
        <time>2024-03-22T10:44:04Z</time>
      </trkpt>
      <trkpt lat="46.7205" lon="-1.98328">
        <ele>-6.2</ele>
        <time>2024-03-22T10:44:11Z</time>
      </trkpt>
      <trkpt lat="46.72042" lon="-1.98319">
        <ele>-6.2</ele>
        <time>2024-03-22T10:44:18Z</time>
      </trkpt>
      <trkpt lat="46.72035" lon="-1.98309">
        <ele>-6.2</ele>
        <time>2024-03-22T10:44:26Z</time>
      </trkpt>
      <trkpt lat="46.72028" lon="-1.983">
        <ele>-6.3</ele>
        <time>2024-03-22T10:44:34Z</time>
      </trkpt>
      <trkpt lat="46.72023" lon="-1.98289">
        <ele>-5.8</ele>
        <time>2024-03-22T10:45:12Z</time>
      </trkpt>
      <trkpt lat="46.72018" lon="-1.98277">
        <ele>-6</ele>
        <time>2024-03-22T10:45:23Z</time>
      </trkpt>
      <trkpt lat="46.72015" lon="-1.98264">
        <ele>-5.4</ele>
        <time>2024-03-22T10:45:34Z</time>
      </trkpt>
      <trkpt lat="46.72009" lon="-1.98254">
        <ele>-5.2</ele>
        <time>2024-03-22T10:51:04Z</time>
      </trkpt>
      <trkpt lat="46.72001" lon="-1.98246">
        <ele>-5.3</ele>
        <time>2024-03-22T10:51:13Z</time>
      </trkpt>
      <trkpt lat="46.71992" lon="-1.98239">
        <ele>-5.4</ele>
        <time>2024-03-22T10:51:22Z</time>
      </trkpt>
      <trkpt lat="46.71982" lon="-1.98234">
        <ele>-5.4</ele>
        <time>2024-03-22T10:51:30Z</time>
      </trkpt>
      <trkpt lat="46.71974" lon="-1.98226">
        <ele>-5.5</ele>
        <time>2024-03-22T10:51:38Z</time>
      </trkpt>
      <trkpt lat="46.71966" lon="-1.98219">
        <ele>-5.7</ele>
        <time>2024-03-22T10:51:45Z</time>
      </trkpt>
      <trkpt lat="46.71957" lon="-1.98214">
        <ele>-5.6</ele>
        <time>2024-03-22T10:51:52Z</time>
      </trkpt>
      <trkpt lat="46.71949" lon="-1.98206">
        <ele>-5.7</ele>
        <time>2024-03-22T10:51:59Z</time>
      </trkpt>
      <trkpt lat="46.71942" lon="-1.98198">
        <ele>-5.7</ele>
        <time>2024-03-22T10:52:06Z</time>
      </trkpt>
      <trkpt lat="46.71935" lon="-1.98189">
        <ele>-5.8</ele>
        <time>2024-03-22T10:52:14Z</time>
      </trkpt>
      <trkpt lat="46.71928" lon="-1.98182">
        <ele>-5.9</ele>
        <time>2024-03-22T10:52:22Z</time>
      </trkpt>
      <trkpt lat="46.7192" lon="-1.98175">
        <ele>-5.9</ele>
        <time>2024-03-22T10:52:30Z</time>
      </trkpt>
      <trkpt lat="46.71911" lon="-1.98169">
        <ele>-5.9</ele>
        <time>2024-03-22T10:52:37Z</time>
      </trkpt>
      <trkpt lat="46.71903" lon="-1.98162">
        <ele>-5.9</ele>
        <time>2024-03-22T10:52:45Z</time>
      </trkpt>
      <trkpt lat="46.71895" lon="-1.98153">
        <ele>-5.9</ele>
        <time>2024-03-22T10:52:53Z</time>
      </trkpt>
      <trkpt lat="46.71886" lon="-1.98144">
        <ele>-5.9</ele>
        <time>2024-03-22T10:53:00Z</time>
      </trkpt>
      <trkpt lat="46.71878" lon="-1.98137">
        <ele>-5.7</ele>
        <time>2024-03-22T10:53:06Z</time>
      </trkpt>
      <trkpt lat="46.7187" lon="-1.98131">
        <ele>-5.7</ele>
        <time>2024-03-22T10:53:13Z</time>
      </trkpt>
      <trkpt lat="46.71862" lon="-1.98123">
        <ele>-5.6</ele>
        <time>2024-03-22T10:53:20Z</time>
      </trkpt>
      <trkpt lat="46.71855" lon="-1.98115">
        <ele>-5.6</ele>
        <time>2024-03-22T10:53:27Z</time>
      </trkpt>
      <trkpt lat="46.71846" lon="-1.98106">
        <ele>-5.6</ele>
        <time>2024-03-22T10:53:34Z</time>
      </trkpt>
      <trkpt lat="46.71838" lon="-1.981">
        <ele>-5.6</ele>
        <time>2024-03-22T10:53:40Z</time>
      </trkpt>
      <trkpt lat="46.7183" lon="-1.98092">
        <ele>-5.5</ele>
        <time>2024-03-22T10:53:47Z</time>
      </trkpt>
      <trkpt lat="46.71822" lon="-1.98084">
        <ele>-5.5</ele>
        <time>2024-03-22T10:53:54Z</time>
      </trkpt>
      <trkpt lat="46.71813" lon="-1.98078">
        <ele>-5.5</ele>
        <time>2024-03-22T10:54:01Z</time>
      </trkpt>
      <trkpt lat="46.71804" lon="-1.98071">
        <ele>-5.5</ele>
        <time>2024-03-22T10:54:08Z</time>
      </trkpt>
      <trkpt lat="46.71796" lon="-1.98064">
        <ele>-5.5</ele>
        <time>2024-03-22T10:54:15Z</time>
      </trkpt>
      <trkpt lat="46.71787" lon="-1.98058">
        <ele>-5.5</ele>
        <time>2024-03-22T10:54:23Z</time>
      </trkpt>
      <trkpt lat="46.7178" lon="-1.98051">
        <ele>-5.5</ele>
        <time>2024-03-22T10:54:30Z</time>
      </trkpt>
      <trkpt lat="46.71771" lon="-1.98047">
        <ele>-5.4</ele>
        <time>2024-03-22T10:54:36Z</time>
      </trkpt>
      <trkpt lat="46.71761" lon="-1.98044">
        <ele>-5.4</ele>
        <time>2024-03-22T10:54:43Z</time>
      </trkpt>
      <trkpt lat="46.71753" lon="-1.9804">
        <ele>-5.4</ele>
        <time>2024-03-22T10:54:49Z</time>
      </trkpt>
      <trkpt lat="46.71743" lon="-1.98035">
        <ele>-5.5</ele>
        <time>2024-03-22T10:54:56Z</time>
      </trkpt>
      <trkpt lat="46.71733" lon="-1.9803">
        <ele>-5.5</ele>
        <time>2024-03-22T10:55:03Z</time>
      </trkpt>
      <trkpt lat="46.71724" lon="-1.98025">
        <ele>-5.7</ele>
        <time>2024-03-22T10:55:11Z</time>
      </trkpt>
      <trkpt lat="46.71716" lon="-1.98019">
        <ele>-5.7</ele>
        <time>2024-03-22T10:55:19Z</time>
      </trkpt>
      <trkpt lat="46.71708" lon="-1.98013">
        <ele>-5.7</ele>
        <time>2024-03-22T10:55:26Z</time>
      </trkpt>
      <trkpt lat="46.71698" lon="-1.98007">
        <ele>-5.8</ele>
        <time>2024-03-22T10:55:33Z</time>
      </trkpt>
      <trkpt lat="46.71688" lon="-1.98002">
        <ele>-5.8</ele>
        <time>2024-03-22T10:55:40Z</time>
      </trkpt>
      <trkpt lat="46.71679" lon="-1.97999">
        <ele>-6</ele>
        <time>2024-03-22T10:55:47Z</time>
      </trkpt>
      <trkpt lat="46.7167" lon="-1.97996">
        <ele>-6</ele>
        <time>2024-03-22T10:55:53Z</time>
      </trkpt>
      <trkpt lat="46.7166" lon="-1.97993">
        <ele>-6</ele>
        <time>2024-03-22T10:56:02Z</time>
      </trkpt>
      <trkpt lat="46.71651" lon="-1.97988">
        <ele>-6</ele>
        <time>2024-03-22T10:56:10Z</time>
      </trkpt>
      <trkpt lat="46.7164" lon="-1.97984">
        <ele>-6</ele>
        <time>2024-03-22T10:56:17Z</time>
      </trkpt>
      <trkpt lat="46.71632" lon="-1.97982">
        <ele>-5.9</ele>
        <time>2024-03-22T10:56:23Z</time>
      </trkpt>
      <trkpt lat="46.71622" lon="-1.97979">
        <ele>-5.9</ele>
        <time>2024-03-22T10:56:31Z</time>
      </trkpt>
      <trkpt lat="46.71614" lon="-1.97974">
        <ele>-5.7</ele>
        <time>2024-03-22T10:56:38Z</time>
      </trkpt>
      <trkpt lat="46.71603" lon="-1.97972">
        <ele>-5.6</ele>
        <time>2024-03-22T10:56:45Z</time>
      </trkpt>
      <trkpt lat="46.71594" lon="-1.9797">
        <ele>-5.4</ele>
        <time>2024-03-22T10:56:52Z</time>
      </trkpt>
      <trkpt lat="46.71585" lon="-1.97967">
        <ele>-5.5</ele>
        <time>2024-03-22T10:57:00Z</time>
      </trkpt>
      <trkpt lat="46.71576" lon="-1.97965">
        <ele>-5.6</ele>
        <time>2024-03-22T10:57:07Z</time>
      </trkpt>
      <trkpt lat="46.71567" lon="-1.97963">
        <ele>-5.6</ele>
        <time>2024-03-22T10:57:14Z</time>
      </trkpt>
      <trkpt lat="46.71557" lon="-1.9796">
        <ele>-5.6</ele>
        <time>2024-03-22T10:57:22Z</time>
      </trkpt>
      <trkpt lat="46.71548" lon="-1.97957">
        <ele>-5.5</ele>
        <time>2024-03-22T10:57:30Z</time>
      </trkpt>
      <trkpt lat="46.71538" lon="-1.97954">
        <ele>-5.5</ele>
        <time>2024-03-22T10:57:37Z</time>
      </trkpt>
      <trkpt lat="46.71529" lon="-1.97953">
        <ele>-5</ele>
        <time>2024-03-22T10:57:56Z</time>
      </trkpt>
      <trkpt lat="46.7152" lon="-1.97948">
        <ele>-4.9</ele>
        <time>2024-03-22T10:58:04Z</time>
      </trkpt>
      <trkpt lat="46.71513" lon="-1.97939">
        <ele>-4.2</ele>
        <time>2024-03-22T10:58:13Z</time>
      </trkpt>
      <trkpt lat="46.71507" lon="-1.97927">
        <ele>-3.6</ele>
        <time>2024-03-22T10:58:23Z</time>
      </trkpt>
      <trkpt lat="46.71502" lon="-1.97915">
        <ele>-3.2</ele>
        <time>2024-03-22T10:58:32Z</time>
      </trkpt>
      <trkpt lat="46.71496" lon="-1.97904">
        <ele>-2.8</ele>
        <time>2024-03-22T10:58:40Z</time>
      </trkpt>
      <trkpt lat="46.71489" lon="-1.97893">
        <ele>-2.2</ele>
        <time>2024-03-22T10:58:49Z</time>
      </trkpt>
      <trkpt lat="46.71482" lon="-1.97883">
        <ele>-2</ele>
        <time>2024-03-22T10:58:58Z</time>
      </trkpt>
      <trkpt lat="46.71476" lon="-1.97872">
        <ele>-1.8</ele>
        <time>2024-03-22T10:59:08Z</time>
      </trkpt>
      <trkpt lat="46.71469" lon="-1.97864">
        <ele>-1.1</ele>
        <time>2024-03-22T10:59:30Z</time>
      </trkpt>
      <trkpt lat="46.71463" lon="-1.97853">
        <ele>-0.9</ele>
        <time>2024-03-22T10:59:40Z</time>
      </trkpt>
      <trkpt lat="46.71458" lon="-1.97842">
        <ele>-0.3</ele>
        <time>2024-03-22T10:59:51Z</time>
      </trkpt>
      <trkpt lat="46.71449" lon="-1.97843">
        <ele>0.3</ele>
        <time>2024-03-22T11:00:09Z</time>
      </trkpt>
      <trkpt lat="46.71444" lon="-1.97831">
        <ele>0.1</ele>
        <time>2024-03-22T11:00:28Z</time>
      </trkpt>
      <trkpt lat="46.71444" lon="-1.97817">
        <ele>0.1</ele>
        <time>2024-03-22T11:00:36Z</time>
      </trkpt>
      <trkpt lat="46.71442" lon="-1.97804">
        <ele>7.1</ele>
        <time>2024-03-22T11:00:44Z</time>
      </trkpt>
      <trkpt lat="46.71442" lon="-1.9779">
        <ele>0.1</ele>
        <time>2024-03-22T11:00:54Z</time>
      </trkpt>
      <trkpt lat="46.71443" lon="-1.97776">
        <ele>0.4</ele>
        <time>2024-03-22T11:01:04Z</time>
      </trkpt>
      <trkpt lat="46.71445" lon="-1.97762">
        <ele>0.4</ele>
        <time>2024-03-22T11:01:13Z</time>
      </trkpt>
      <trkpt lat="46.71448" lon="-1.97749">
        <ele>0.7</ele>
        <time>2024-03-22T11:01:27Z</time>
      </trkpt>
      <trkpt lat="46.7144" lon="-1.97741">
        <ele>1.5</ele>
        <time>2024-03-22T11:01:52Z</time>
      </trkpt>
      <trkpt lat="46.71437" lon="-1.97728">
        <ele>1.2</ele>
        <time>2024-03-22T11:02:00Z</time>
      </trkpt>
      <trkpt lat="46.71432" lon="-1.97715">
        <ele>1.4</ele>
        <time>2024-03-22T11:02:07Z</time>
      </trkpt>
      <trkpt lat="46.71429" lon="-1.97702">
        <ele>2.2</ele>
        <time>2024-03-22T11:02:15Z</time>
      </trkpt>
      <trkpt lat="46.71425" lon="-1.97689">
        <ele>2.7</ele>
        <time>2024-03-22T11:02:22Z</time>
      </trkpt>
      <trkpt lat="46.71422" lon="-1.97676">
        <ele>3.3</ele>
        <time>2024-03-22T11:02:30Z</time>
      </trkpt>
      <trkpt lat="46.71418" lon="-1.97663">
        <ele>4</ele>
        <time>2024-03-22T11:02:38Z</time>
      </trkpt>
      <trkpt lat="46.71415" lon="-1.9765">
        <ele>4.7</ele>
        <time>2024-03-22T11:02:46Z</time>
      </trkpt>
      <trkpt lat="46.71417" lon="-1.97637">
        <ele>4.6</ele>
        <time>2024-03-22T11:02:56Z</time>
      </trkpt>
      <trkpt lat="46.71423" lon="-1.97626">
        <ele>4.4</ele>
        <time>2024-03-22T11:03:04Z</time>
      </trkpt>
      <trkpt lat="46.71431" lon="-1.97617">
        <ele>4.8</ele>
        <time>2024-03-22T11:03:12Z</time>
      </trkpt>
      <trkpt lat="46.71438" lon="-1.97608">
        <ele>5.4</ele>
        <time>2024-03-22T11:03:22Z</time>
      </trkpt>
      <trkpt lat="46.71445" lon="-1.97598">
        <ele>6.3</ele>
        <time>2024-03-22T11:03:32Z</time>
      </trkpt>
      <trkpt lat="46.71451" lon="-1.97587">
        <ele>6</ele>
        <time>2024-03-22T11:03:40Z</time>
      </trkpt>
      <trkpt lat="46.71458" lon="-1.97577">
        <ele>6.1</ele>
        <time>2024-03-22T11:03:49Z</time>
      </trkpt>
      <trkpt lat="46.71463" lon="-1.97566">
        <ele>6.9</ele>
        <time>2024-03-22T11:03:57Z</time>
      </trkpt>
      <trkpt lat="46.7147" lon="-1.97554">
        <ele>6.8</ele>
        <time>2024-03-22T11:04:06Z</time>
      </trkpt>
      <trkpt lat="46.71476" lon="-1.97543">
        <ele>6.7</ele>
        <time>2024-03-22T11:04:15Z</time>
      </trkpt>
      <trkpt lat="46.71485" lon="-1.97538">
        <ele>7.1</ele>
        <time>2024-03-22T11:04:22Z</time>
      </trkpt>
      <trkpt lat="46.71493" lon="-1.97543">
        <ele>7.7</ele>
        <time>2024-03-22T11:04:30Z</time>
      </trkpt>
      <trkpt lat="46.71501" lon="-1.97551">
        <ele>8.5</ele>
        <time>2024-03-22T11:04:39Z</time>
      </trkpt>
      <trkpt lat="46.7151" lon="-1.97556">
        <ele>9.2</ele>
        <time>2024-03-22T11:04:47Z</time>
      </trkpt>
      <trkpt lat="46.71518" lon="-1.97563">
        <ele>9.4</ele>
        <time>2024-03-22T11:05:16Z</time>
      </trkpt>
      <trkpt lat="46.71528" lon="-1.97564">
        <ele>9</ele>
        <time>2024-03-22T11:05:26Z</time>
      </trkpt>
      <trkpt lat="46.71537" lon="-1.97563">
        <ele>7.8</ele>
        <time>2024-03-22T11:05:39Z</time>
      </trkpt>
      <trkpt lat="46.71547" lon="-1.97564">
        <ele>8</ele>
        <time>2024-03-22T11:05:48Z</time>
      </trkpt>
      <trkpt lat="46.71556" lon="-1.97558">
        <ele>7.9</ele>
        <time>2024-03-22T11:05:56Z</time>
      </trkpt>
      <trkpt lat="46.71565" lon="-1.97553">
        <ele>8.3</ele>
        <time>2024-03-22T11:06:03Z</time>
      </trkpt>
      <trkpt lat="46.71574" lon="-1.97549">
        <ele>8.6</ele>
        <time>2024-03-22T11:06:11Z</time>
      </trkpt>
      <trkpt lat="46.71583" lon="-1.97544">
        <ele>8</ele>
        <time>2024-03-22T11:06:19Z</time>
      </trkpt>
      <trkpt lat="46.71591" lon="-1.97537">
        <ele>7.9</ele>
        <time>2024-03-22T11:06:27Z</time>
      </trkpt>
      <trkpt lat="46.716" lon="-1.9753">
        <ele>7.9</ele>
        <time>2024-03-22T11:06:36Z</time>
      </trkpt>
      <trkpt lat="46.71609" lon="-1.9753">
        <ele>7.5</ele>
        <time>2024-03-22T11:06:43Z</time>
      </trkpt>
      <trkpt lat="46.71619" lon="-1.97529">
        <ele>7.6</ele>
        <time>2024-03-22T11:06:51Z</time>
      </trkpt>
      <trkpt lat="46.71628" lon="-1.97533">
        <ele>6.8</ele>
        <time>2024-03-22T11:06:59Z</time>
      </trkpt>
      <trkpt lat="46.71637" lon="-1.97539">
        <ele>6.4</ele>
        <time>2024-03-22T11:07:09Z</time>
      </trkpt>
      <trkpt lat="46.71646" lon="-1.97543">
        <ele>7.2</ele>
        <time>2024-03-22T11:07:18Z</time>
      </trkpt>
      <trkpt lat="46.71655" lon="-1.97549">
        <ele>7.5</ele>
        <time>2024-03-22T11:07:27Z</time>
      </trkpt>
      <trkpt lat="46.71663" lon="-1.97557">
        <ele>7.9</ele>
        <time>2024-03-22T11:07:35Z</time>
      </trkpt>
      <trkpt lat="46.71671" lon="-1.97564">
        <ele>7.8</ele>
        <time>2024-03-22T11:08:08Z</time>
      </trkpt>
      <trkpt lat="46.7168" lon="-1.97565">
        <ele>6.1</ele>
        <time>2024-03-22T11:08:23Z</time>
      </trkpt>
      <trkpt lat="46.7169" lon="-1.97562">
        <ele>4.8</ele>
        <time>2024-03-22T11:09:17Z</time>
      </trkpt>
      <trkpt lat="46.717" lon="-1.97566">
        <ele>3.3</ele>
        <time>2024-03-22T11:09:26Z</time>
      </trkpt>
      <trkpt lat="46.71709" lon="-1.9757">
        <ele>1</ele>
        <time>2024-03-22T11:09:36Z</time>
      </trkpt>
      <trkpt lat="46.71718" lon="-1.97575">
        <ele>-0.5</ele>
        <time>2024-03-22T11:09:46Z</time>
      </trkpt>
      <trkpt lat="46.71727" lon="-1.9758">
        <ele>-1.1</ele>
        <time>2024-03-22T11:09:56Z</time>
      </trkpt>
      <trkpt lat="46.71731" lon="-1.97567">
        <ele>-1.6</ele>
        <time>2024-03-22T11:10:11Z</time>
      </trkpt>
      <trkpt lat="46.71734" lon="-1.97555">
        <ele>-1.5</ele>
        <time>2024-03-22T11:10:20Z</time>
      </trkpt>
      <trkpt lat="46.71735" lon="-1.97541">
        <ele>-1.4</ele>
        <time>2024-03-22T11:10:29Z</time>
      </trkpt>
      <trkpt lat="46.71739" lon="-1.97528">
        <ele>-1.2</ele>
        <time>2024-03-22T11:10:38Z</time>
      </trkpt>
      <trkpt lat="46.71745" lon="-1.97516">
        <ele>-1.1</ele>
        <time>2024-03-22T11:10:46Z</time>
      </trkpt>
      <trkpt lat="46.7175" lon="-1.97505">
        <ele>-0.5</ele>
        <time>2024-03-22T11:10:58Z</time>
      </trkpt>
      <trkpt lat="46.71755" lon="-1.97492">
        <ele>0.2</ele>
        <time>2024-03-22T11:11:07Z</time>
      </trkpt>
      <trkpt lat="46.71761" lon="-1.97481">
        <ele>0.8</ele>
        <time>2024-03-22T11:11:14Z</time>
      </trkpt>
      <trkpt lat="46.71763" lon="-1.97468">
        <ele>1.4</ele>
        <time>2024-03-22T11:11:21Z</time>
      </trkpt>
      <trkpt lat="46.71768" lon="-1.97456">
        <ele>1.9</ele>
        <time>2024-03-22T11:11:29Z</time>
      </trkpt>
      <trkpt lat="46.71773" lon="-1.97444">
        <ele>1.8</ele>
        <time>2024-03-22T11:11:39Z</time>
      </trkpt>
      <trkpt lat="46.71779" lon="-1.97433">
        <ele>1.7</ele>
        <time>2024-03-22T11:11:48Z</time>
      </trkpt>
      <trkpt lat="46.71786" lon="-1.97422">
        <ele>1.5</ele>
        <time>2024-03-22T11:11:55Z</time>
      </trkpt>
      <trkpt lat="46.71792" lon="-1.97411">
        <ele>1.4</ele>
        <time>2024-03-22T11:12:02Z</time>
      </trkpt>
      <trkpt lat="46.71798" lon="-1.974">
        <ele>1.4</ele>
        <time>2024-03-22T11:12:08Z</time>
      </trkpt>
      <trkpt lat="46.71804" lon="-1.97389">
        <ele>1.4</ele>
        <time>2024-03-22T11:12:16Z</time>
      </trkpt>
      <trkpt lat="46.71811" lon="-1.97378">
        <ele>1.4</ele>
        <time>2024-03-22T11:12:26Z</time>
      </trkpt>
      <trkpt lat="46.71815" lon="-1.97366">
        <ele>1.4</ele>
        <time>2024-03-22T11:12:36Z</time>
      </trkpt>
      <trkpt lat="46.7182" lon="-1.97355">
        <ele>1.4</ele>
        <time>2024-03-22T11:12:42Z</time>
      </trkpt>
      <trkpt lat="46.71825" lon="-1.97342">
        <ele>1.4</ele>
        <time>2024-03-22T11:12:49Z</time>
      </trkpt>
      <trkpt lat="46.71831" lon="-1.9733">
        <ele>1.4</ele>
        <time>2024-03-22T11:12:58Z</time>
      </trkpt>
      <trkpt lat="46.71837" lon="-1.9732">
        <ele>1.6</ele>
        <time>2024-03-22T11:13:06Z</time>
      </trkpt>
      <trkpt lat="46.71843" lon="-1.97309">
        <ele>1.9</ele>
        <time>2024-03-22T11:13:15Z</time>
      </trkpt>
      <trkpt lat="46.71848" lon="-1.97297">
        <ele>2.2</ele>
        <time>2024-03-22T11:13:24Z</time>
      </trkpt>
      <trkpt lat="46.71854" lon="-1.97287">
        <ele>2.4</ele>
        <time>2024-03-22T11:13:31Z</time>
      </trkpt>
      <trkpt lat="46.71862" lon="-1.97278">
        <ele>2.6</ele>
        <time>2024-03-22T11:13:38Z</time>
      </trkpt>
      <trkpt lat="46.71869" lon="-1.9727">
        <ele>2.8</ele>
        <time>2024-03-22T11:13:46Z</time>
      </trkpt>
      <trkpt lat="46.71874" lon="-1.97258">
        <ele>2.7</ele>
        <time>2024-03-22T11:13:56Z</time>
      </trkpt>
      <trkpt lat="46.71879" lon="-1.97247">
        <ele>2.7</ele>
        <time>2024-03-22T11:14:05Z</time>
      </trkpt>
      <trkpt lat="46.71886" lon="-1.97237">
        <ele>2.3</ele>
        <time>2024-03-22T11:14:16Z</time>
      </trkpt>
      <trkpt lat="46.71894" lon="-1.97227">
        <ele>2.2</ele>
        <time>2024-03-22T11:14:26Z</time>
      </trkpt>
      <trkpt lat="46.71901" lon="-1.97219">
        <ele>2.1</ele>
        <time>2024-03-22T11:14:33Z</time>
      </trkpt>
      <trkpt lat="46.71907" lon="-1.97208">
        <ele>1.8</ele>
        <time>2024-03-22T11:14:39Z</time>
      </trkpt>
      <trkpt lat="46.71914" lon="-1.97201">
        <ele>1.7</ele>
        <time>2024-03-22T11:14:45Z</time>
      </trkpt>
      <trkpt lat="46.71923" lon="-1.97193">
        <ele>1.7</ele>
        <time>2024-03-22T11:14:52Z</time>
      </trkpt>
      <trkpt lat="46.7193" lon="-1.97185">
        <ele>1.6</ele>
        <time>2024-03-22T11:15:01Z</time>
      </trkpt>
      <trkpt lat="46.71937" lon="-1.97176">
        <ele>1.6</ele>
        <time>2024-03-22T11:15:07Z</time>
      </trkpt>
      <trkpt lat="46.71944" lon="-1.97167">
        <ele>1.7</ele>
        <time>2024-03-22T11:15:15Z</time>
      </trkpt>
      <trkpt lat="46.71952" lon="-1.97158">
        <ele>1.8</ele>
        <time>2024-03-22T11:15:23Z</time>
      </trkpt>
      <trkpt lat="46.71958" lon="-1.97149">
        <ele>1.7</ele>
        <time>2024-03-22T11:15:30Z</time>
      </trkpt>
      <trkpt lat="46.71965" lon="-1.97139">
        <ele>1.6</ele>
        <time>2024-03-22T11:15:39Z</time>
      </trkpt>
      <trkpt lat="46.71973" lon="-1.97129">
        <ele>1.6</ele>
        <time>2024-03-22T11:15:48Z</time>
      </trkpt>
      <trkpt lat="46.71982" lon="-1.97124">
        <ele>1.6</ele>
        <time>2024-03-22T11:15:57Z</time>
      </trkpt>
      <trkpt lat="46.71991" lon="-1.9712">
        <ele>1.8</ele>
        <time>2024-03-22T11:16:04Z</time>
      </trkpt>
      <trkpt lat="46.72" lon="-1.9712">
        <ele>1.8</ele>
        <time>2024-03-22T11:16:20Z</time>
      </trkpt>
      <trkpt lat="46.72002" lon="-1.97119">
        <ele>1.9</ele>
        <time>2024-03-22T11:16:23Z</time>
      </trkpt>
    </trkseg>
  </trk>
</gpx>